<?xml version="1.0" encoding="UTF-8"?>
<gpx version="1.1" creator="2bulu-scraper" xmlns="http://www.topografix.com/GPX/1/1">
  <metadata><name>泸州江阳区四峰山</name><desc>source: 2bulu.com trackId=80796146; exported 2026-09-01T14:46:00.052Z</desc>
    <bounds minlat="28.820207" minlon="105.529777" maxlat="28.829895" maxlon="105.54645"/>
    <link href="https://www.2bulu.com/track/t-ZMgAYbk41VHp%252FR2KBg5Tzw%253D%253D.htm"><text>2bulu 源页面</text></link>
  </metadata>
  <wpt lat="28.823424" lon="105.52982"><ele>523</ele><name></name></wpt>
  <wpt lat="28.823391" lon="105.530599"><ele>550</ele><name></name></wpt>
  <wpt lat="28.823039" lon="105.530924"><ele>565</ele><name></name></wpt>
  <wpt lat="28.822255" lon="105.531344"><ele>572</ele><name></name></wpt>
  <wpt lat="28.821958" lon="105.531464"><ele>580</ele><name></name></wpt>
  <wpt lat="28.82259" lon="105.531775"><ele>586</ele><name></name></wpt>
  <wpt lat="28.822536" lon="105.531777"><ele>586</ele><name></name></wpt>
  <wpt lat="28.821917" lon="105.532136"><ele>598</ele><name></name></wpt>
  <wpt lat="28.821388" lon="105.532114"><ele>613</ele><name></name></wpt>
  <wpt lat="28.821307" lon="105.531891"><ele>611</ele><name></name></wpt>
  <wpt lat="28.821337" lon="105.531781"><ele>609</ele><name></name></wpt>
  <wpt lat="28.821205" lon="105.531222"><ele>597</ele><name></name></wpt>
  <wpt lat="28.820838" lon="105.531455"><ele>577</ele><name></name></wpt>
  <wpt lat="28.820608" lon="105.531902"><ele>572</ele><name></name></wpt>
  <wpt lat="28.820262" lon="105.533656"><ele>541</ele><name></name></wpt>
  <wpt lat="28.821108" lon="105.534509"><ele>525</ele><name></name></wpt>
  <wpt lat="28.82116" lon="105.534064"><ele>537</ele><name></name></wpt>
  <wpt lat="28.82208" lon="105.534269"><ele>520</ele><name></name></wpt>
  <wpt lat="28.822071" lon="105.534238"><ele>520</ele><name></name></wpt>
  <wpt lat="28.821455" lon="105.535108"><ele>517</ele><name></name></wpt>
  <wpt lat="28.820663" lon="105.535815"><ele>510</ele><name></name></wpt>
  <wpt lat="28.820657" lon="105.537618"><ele>497</ele><name></name></wpt>
  <wpt lat="28.820964" lon="105.539201"><ele>491</ele><name></name></wpt>
  <wpt lat="28.821296" lon="105.54037"><ele>488</ele><name></name></wpt>
  <wpt lat="28.821256" lon="105.540414"><ele>488</ele><name></name></wpt>
  <wpt lat="28.82083" lon="105.541275"><ele>494</ele><name></name></wpt>
  <wpt lat="28.821136" lon="105.542149"><ele>505</ele><name></name></wpt>
  <wpt lat="28.820516" lon="105.543029"><ele>513</ele><name></name></wpt>
  <wpt lat="28.82087" lon="105.543316"><ele>511</ele><name></name></wpt>
  <wpt lat="28.821264" lon="105.543782"><ele>512</ele><name></name></wpt>
  <wpt lat="28.821937" lon="105.543799"><ele>498</ele><name></name></wpt>
  <wpt lat="28.822232" lon="105.544429"><ele>494</ele><name></name></wpt>
  <wpt lat="28.822819" lon="105.545063"><ele>493</ele><name></name></wpt>
  <wpt lat="28.82225" lon="105.545348"><ele>483</ele><name></name></wpt>
  <wpt lat="28.822288" lon="105.546124"><ele>474</ele><name></name></wpt>
  <wpt lat="28.822736" lon="105.546449"><ele>465</ele><name></name></wpt>
  <wpt lat="28.823183" lon="105.545767"><ele>468</ele><name></name></wpt>
  <wpt lat="28.824531" lon="105.545183"><ele>446</ele><name></name></wpt>
  <wpt lat="28.824601" lon="105.545096"><ele>445</ele><name></name></wpt>
  <wpt lat="28.824778" lon="105.545014"><ele>443</ele><name></name></wpt>
  <wpt lat="28.825075" lon="105.544909"><ele>437</ele><name></name></wpt>
  <wpt lat="28.826607" lon="105.544523"><ele>412</ele><name></name></wpt>
  <wpt lat="28.82713" lon="105.544018"><ele>392</ele><name></name></wpt>
  <wpt lat="28.826961" lon="105.54346"><ele>381</ele><name></name></wpt>
  <trk><name>泸州江阳区四峰山</name>
      <trkseg>
        <trkpt lat="28.82428" lon="105.530416"><ele>494.79965</ele><time>2026-03-20T22:09:43.000Z</time></trkpt>
        <trkpt lat="28.824255" lon="105.530412"><ele>495.3043</ele><time>2026-03-20T22:09:50.000Z</time></trkpt>
        <trkpt lat="28.824151" lon="105.53039"><ele>498.8265</ele><time>2026-03-20T22:09:59.000Z</time></trkpt>
        <trkpt lat="28.824094" lon="105.530377"><ele>501.53537</ele><time>2026-03-20T22:10:06.000Z</time></trkpt>
        <trkpt lat="28.824047" lon="105.530379"><ele>503.7076</ele><time>2026-03-20T22:10:18.000Z</time></trkpt>
        <trkpt lat="28.824005" lon="105.530384"><ele>505.1546</ele><time>2026-03-20T22:10:25.000Z</time></trkpt>
        <trkpt lat="28.823955" lon="105.530384"><ele>506.89236</ele><time>2026-03-20T22:10:31.000Z</time></trkpt>
        <trkpt lat="28.823906" lon="105.530377"><ele>508.17075</ele><time>2026-03-20T22:10:39.000Z</time></trkpt>
        <trkpt lat="28.823861" lon="105.530364"><ele>509.52896</ele><time>2026-03-20T22:10:54.000Z</time></trkpt>
        <trkpt lat="28.823862" lon="105.530319"><ele>510.5108</ele><time>2026-03-20T22:11:00.000Z</time></trkpt>
        <trkpt lat="28.823829" lon="105.530281"><ele>511.7605</ele><time>2026-03-20T22:11:09.000Z</time></trkpt>
        <trkpt lat="28.823794" lon="105.530244"><ele>513.5485</ele><time>2026-03-20T22:11:17.000Z</time></trkpt>
        <trkpt lat="28.823754" lon="105.530208"><ele>514.8091</ele><time>2026-03-20T22:11:41.000Z</time></trkpt>
        <trkpt lat="28.823722" lon="105.530169"><ele>515.9918</ele><time>2026-03-20T22:11:52.000Z</time></trkpt>
        <trkpt lat="28.823744" lon="105.530113"><ele>516.8199</ele><time>2026-03-20T22:12:02.000Z</time></trkpt>
        <trkpt lat="28.823719" lon="105.530104"><ele>517.1876</ele><time>2026-03-20T22:12:06.000Z</time></trkpt>
        <trkpt lat="28.823676" lon="105.530076"><ele>517.0904</ele><time>2026-03-20T22:12:11.000Z</time></trkpt>
        <trkpt lat="28.82362" lon="105.530043"><ele>518.36365</ele><time>2026-03-20T22:12:18.000Z</time></trkpt>
        <trkpt lat="28.823604" lon="105.529985"><ele>519.42377</ele><time>2026-03-20T22:12:26.000Z</time></trkpt>
        <trkpt lat="28.823582" lon="105.529937"><ele>519.50775</ele><time>2026-03-20T22:12:34.000Z</time></trkpt>
        <trkpt lat="28.823529" lon="105.529947"><ele>520.9536</ele><time>2026-03-20T22:12:49.000Z</time></trkpt>
        <trkpt lat="28.823511" lon="105.529908"><ele>522.395</ele><time>2026-03-20T22:12:54.000Z</time></trkpt>
        <trkpt lat="28.823468" lon="105.52987"><ele>522.9386</ele><time>2026-03-20T22:12:58.000Z</time></trkpt>
        <trkpt lat="28.823424" lon="105.52982"><ele>523.1062</ele><time>2026-03-20T22:13:49.000Z</time></trkpt>
        <trkpt lat="28.823382" lon="105.529793"><ele>524.8105</ele><time>2026-03-20T22:14:36.000Z</time></trkpt>
        <trkpt lat="28.823412" lon="105.529845"><ele>526.18</ele><time>2026-03-20T22:14:53.000Z</time></trkpt>
        <trkpt lat="28.823464" lon="105.529896"><ele>525.0803</ele><time>2026-03-20T22:15:11.000Z</time></trkpt>
        <trkpt lat="28.823463" lon="105.529844"><ele>523.73303</ele><time>2026-03-20T22:15:31.000Z</time></trkpt>
        <trkpt lat="28.823437" lon="105.529792"><ele>523.08704</ele><time>2026-03-20T22:15:38.000Z</time></trkpt>
        <trkpt lat="28.82339" lon="105.529777"><ele>524.0822</ele><time>2026-03-20T22:15:47.000Z</time></trkpt>
        <trkpt lat="28.823393" lon="105.529854"><ele>525.2698</ele><time>2026-03-20T22:15:57.000Z</time></trkpt>
        <trkpt lat="28.823373" lon="105.529906"><ele>528.3791</ele><time>2026-03-20T22:17:22.000Z</time></trkpt>
        <trkpt lat="28.823413" lon="105.529932"><ele>530.0656</ele><time>2026-03-20T22:17:39.000Z</time></trkpt>
        <trkpt lat="28.823444" lon="105.529988"><ele>531.02985</ele><time>2026-03-20T22:18:08.000Z</time></trkpt>
        <trkpt lat="28.823426" lon="105.53003"><ele>532.0953</ele><time>2026-03-20T22:18:18.000Z</time></trkpt>
        <trkpt lat="28.823409" lon="105.530075"><ele>532.93317</ele><time>2026-03-20T22:18:21.000Z</time></trkpt>
        <trkpt lat="28.823402" lon="105.530061"><ele>533.6492</ele><time>2026-03-20T22:18:24.000Z</time></trkpt>
        <trkpt lat="28.823355" lon="105.530023"><ele>535.2894</ele><time>2026-03-20T22:18:42.000Z</time></trkpt>
        <trkpt lat="28.823336" lon="105.530048"><ele>534.70276</ele><time>2026-03-20T22:18:45.000Z</time></trkpt>
        <trkpt lat="28.82334" lon="105.530111"><ele>537.59674</ele><time>2026-03-20T22:18:50.000Z</time></trkpt>
        <trkpt lat="28.823308" lon="105.53015"><ele>541.9458</ele><time>2026-03-20T22:18:57.000Z</time></trkpt>
        <trkpt lat="28.823283" lon="105.530199"><ele>543.2459</ele><time>2026-03-20T22:19:03.000Z</time></trkpt>
        <trkpt lat="28.823285" lon="105.53026"><ele>544.56604</ele><time>2026-03-20T22:19:13.000Z</time></trkpt>
        <trkpt lat="28.823231" lon="105.53024"><ele>544.9891</ele><time>2026-03-20T22:19:26.000Z</time></trkpt>
        <trkpt lat="28.823252" lon="105.530215"><ele>544.9093</ele><time>2026-03-20T22:19:30.000Z</time></trkpt>
        <trkpt lat="28.823247" lon="105.530273"><ele>544.5686</ele><time>2026-03-20T22:19:37.000Z</time></trkpt>
        <trkpt lat="28.823301" lon="105.530244"><ele>543.562</ele><time>2026-03-20T22:19:41.000Z</time></trkpt>
        <trkpt lat="28.823329" lon="105.530259"><ele>543.5749</ele><time>2026-03-20T22:19:43.000Z</time></trkpt>
        <trkpt lat="28.82336" lon="105.530325"><ele>545.3262</ele><time>2026-03-20T22:20:09.000Z</time></trkpt>
        <trkpt lat="28.823325" lon="105.530371"><ele>544.22473</ele><time>2026-03-20T22:20:21.000Z</time></trkpt>
        <trkpt lat="28.82336" lon="105.530369"><ele>544.4199</ele><time>2026-03-20T22:20:27.000Z</time></trkpt>
        <trkpt lat="28.823333" lon="105.530397"><ele>547.14</ele><time>2026-03-20T22:20:45.000Z</time></trkpt>
        <trkpt lat="28.823319" lon="105.530452"><ele>548.4104</ele><time>2026-03-20T22:20:54.000Z</time></trkpt>
        <trkpt lat="28.823338" lon="105.530501"><ele>549.6267</ele><time>2026-03-20T22:21:00.000Z</time></trkpt>
        <trkpt lat="28.823357" lon="105.530557"><ele>550.6583</ele><time>2026-03-20T22:21:08.000Z</time></trkpt>
        <trkpt lat="28.823385" lon="105.530595"><ele>550.5231</ele><time>2026-03-20T22:21:13.000Z</time></trkpt>
        <trkpt lat="28.823389" lon="105.530656"><ele>550.649</ele><time>2026-03-20T22:21:31.000Z</time></trkpt>
        <trkpt lat="28.823387" lon="105.530698"><ele>551.9489</ele><time>2026-03-20T22:21:37.000Z</time></trkpt>
        <trkpt lat="28.823383" lon="105.530758"><ele>553.9744</ele><time>2026-03-20T22:21:43.000Z</time></trkpt>
        <trkpt lat="28.823391" lon="105.530819"><ele>555.2049</ele><time>2026-03-20T22:21:54.000Z</time></trkpt>
        <trkpt lat="28.82337" lon="105.53087"><ele>555.86755</ele><time>2026-03-20T22:22:04.000Z</time></trkpt>
        <trkpt lat="28.823327" lon="105.530892"><ele>559.7238</ele><time>2026-03-20T22:22:12.000Z</time></trkpt>
        <trkpt lat="28.823279" lon="105.530917"><ele>561.89307</ele><time>2026-03-20T22:22:21.000Z</time></trkpt>
        <trkpt lat="28.823234" lon="105.530902"><ele>563.21954</ele><time>2026-03-20T22:22:28.000Z</time></trkpt>
        <trkpt lat="28.82319" lon="105.530918"><ele>563.8675</ele><time>2026-03-20T22:22:38.000Z</time></trkpt>
        <trkpt lat="28.823151" lon="105.530918"><ele>563.76935</ele><time>2026-03-20T22:22:44.000Z</time></trkpt>
        <trkpt lat="28.823096" lon="105.530927"><ele>564.2478</ele><time>2026-03-20T22:22:50.000Z</time></trkpt>
        <trkpt lat="28.823041" lon="105.530925"><ele>565.246</ele><time>2026-03-20T22:22:57.000Z</time></trkpt>
        <trkpt lat="28.822996" lon="105.530909"><ele>564.61523</ele><time>2026-03-20T22:23:04.000Z</time></trkpt>
        <trkpt lat="28.822949" lon="105.530884"><ele>563.9617</ele><time>2026-03-20T22:23:10.000Z</time></trkpt>
        <trkpt lat="28.822899" lon="105.530877"><ele>563.5924</ele><time>2026-03-20T22:23:15.000Z</time></trkpt>
        <trkpt lat="28.822849" lon="105.530877"><ele>563.53143</ele><time>2026-03-20T22:23:22.000Z</time></trkpt>
        <trkpt lat="28.822807" lon="105.530892"><ele>563.3175</ele><time>2026-03-20T22:23:28.000Z</time></trkpt>
        <trkpt lat="28.822762" lon="105.530912"><ele>564.211</ele><time>2026-03-20T22:23:35.000Z</time></trkpt>
        <trkpt lat="28.822716" lon="105.530932"><ele>565.2023</ele><time>2026-03-20T22:23:41.000Z</time></trkpt>
        <trkpt lat="28.822675" lon="105.530971"><ele>566.11145</ele><time>2026-03-20T22:23:47.000Z</time></trkpt>
        <trkpt lat="28.822628" lon="105.531009"><ele>567.76294</ele><time>2026-03-20T22:23:55.000Z</time></trkpt>
        <trkpt lat="28.822594" lon="105.531038"><ele>568.2475</ele><time>2026-03-20T22:24:00.000Z</time></trkpt>
        <trkpt lat="28.822549" lon="105.531059"><ele>568.6799</ele><time>2026-03-20T22:24:05.000Z</time></trkpt>
        <trkpt lat="28.822496" lon="105.531082"><ele>568.86237</ele><time>2026-03-20T22:24:11.000Z</time></trkpt>
        <trkpt lat="28.822456" lon="105.531103"><ele>568.9399</ele><time>2026-03-20T22:24:16.000Z</time></trkpt>
        <trkpt lat="28.822414" lon="105.531142"><ele>568.26495</ele><time>2026-03-20T22:24:26.000Z</time></trkpt>
        <trkpt lat="28.82238" lon="105.531164"><ele>568.455</ele><time>2026-03-20T22:24:33.000Z</time></trkpt>
        <trkpt lat="28.822337" lon="105.531193"><ele>568.8892</ele><time>2026-03-20T22:24:42.000Z</time></trkpt>
        <trkpt lat="28.822322" lon="105.531239"><ele>570.20667</ele><time>2026-03-20T22:24:49.000Z</time></trkpt>
        <trkpt lat="28.822298" lon="105.531279"><ele>571.1345</ele><time>2026-03-20T22:24:54.000Z</time></trkpt>
        <trkpt lat="28.822259" lon="105.53134"><ele>571.6097</ele><time>2026-03-20T22:25:01.000Z</time></trkpt>
        <trkpt lat="28.822301" lon="105.531305"><ele>569.9332</ele><time>2026-03-20T22:25:14.000Z</time></trkpt>
        <trkpt lat="28.822331" lon="105.531252"><ele>570.6639</ele><time>2026-03-20T22:25:43.000Z</time></trkpt>
        <trkpt lat="28.822289" lon="105.531268"><ele>570.93396</ele><time>2026-03-20T22:25:49.000Z</time></trkpt>
        <trkpt lat="28.822251" lon="105.531293"><ele>570.90344</ele><time>2026-03-20T22:25:53.000Z</time></trkpt>
        <trkpt lat="28.822267" lon="105.531344"><ele>570.89197</ele><time>2026-03-20T22:26:14.000Z</time></trkpt>
        <trkpt lat="28.822229" lon="105.53137"><ele>571.48584</ele><time>2026-03-20T22:26:26.000Z</time></trkpt>
        <trkpt lat="28.822166" lon="105.531383"><ele>572.3427</ele><time>2026-03-20T22:26:42.000Z</time></trkpt>
        <trkpt lat="28.822122" lon="105.531401"><ele>573.9093</ele><time>2026-03-20T22:26:55.000Z</time></trkpt>
        <trkpt lat="28.822077" lon="105.531395"><ele>574.73047</ele><time>2026-03-20T22:27:04.000Z</time></trkpt>
        <trkpt lat="28.822036" lon="105.531422"><ele>576.18256</ele><time>2026-03-20T22:27:12.000Z</time></trkpt>
        <trkpt lat="28.822009" lon="105.531469"><ele>577.74884</ele><time>2026-03-20T22:27:19.000Z</time></trkpt>
        <trkpt lat="28.821962" lon="105.53147"><ele>579.5711</ele><time>2026-03-20T22:27:26.000Z</time></trkpt>
        <trkpt lat="28.821968" lon="105.531516"><ele>579.77716</ele><time>2026-03-20T22:27:55.000Z</time></trkpt>
        <trkpt lat="28.821978" lon="105.531562"><ele>579.4957</ele><time>2026-03-20T22:28:02.000Z</time></trkpt>
        <trkpt lat="28.821996" lon="105.531614"><ele>579.87286</ele><time>2026-03-20T22:28:08.000Z</time></trkpt>
        <trkpt lat="28.822001" lon="105.531683"><ele>581.7762</ele><time>2026-03-20T22:28:15.000Z</time></trkpt>
        <trkpt lat="28.82202" lon="105.531732"><ele>582.6652</ele><time>2026-03-20T22:28:21.000Z</time></trkpt>
        <trkpt lat="28.822061" lon="105.53177"><ele>583.7628</ele><time>2026-03-20T22:28:28.000Z</time></trkpt>
        <trkpt lat="28.822114" lon="105.531785"><ele>584.81683</ele><time>2026-03-20T22:28:35.000Z</time></trkpt>
        <trkpt lat="28.822164" lon="105.531774"><ele>584.22406</ele><time>2026-03-20T22:28:43.000Z</time></trkpt>
        <trkpt lat="28.822208" lon="105.531758"><ele>583.5776</ele><time>2026-03-20T22:28:51.000Z</time></trkpt>
        <trkpt lat="28.822253" lon="105.531731"><ele>582.5007</ele><time>2026-03-20T22:28:58.000Z</time></trkpt>
        <trkpt lat="28.822298" lon="105.531706"><ele>582.07007</ele><time>2026-03-20T22:29:04.000Z</time></trkpt>
        <trkpt lat="28.82234" lon="105.531674"><ele>582.6312</ele><time>2026-03-20T22:29:10.000Z</time></trkpt>
        <trkpt lat="28.822392" lon="105.531647"><ele>583.4204</ele><time>2026-03-20T22:29:18.000Z</time></trkpt>
        <trkpt lat="28.822437" lon="105.531619"><ele>583.1205</ele><time>2026-03-20T22:29:27.000Z</time></trkpt>
        <trkpt lat="28.822493" lon="105.531596"><ele>584.1315</ele><time>2026-03-20T22:29:37.000Z</time></trkpt>
        <trkpt lat="28.82254" lon="105.531595"><ele>584.434</ele><time>2026-03-20T22:29:44.000Z</time></trkpt>
        <trkpt lat="28.822586" lon="105.531606"><ele>585.459</ele><time>2026-03-20T22:29:52.000Z</time></trkpt>
        <trkpt lat="28.822628" lon="105.531623"><ele>586.4255</ele><time>2026-03-20T22:29:58.000Z</time></trkpt>
        <trkpt lat="28.822646" lon="105.531673"><ele>587.2191</ele><time>2026-03-20T22:30:04.000Z</time></trkpt>
        <trkpt lat="28.822634" lon="105.53173"><ele>587.1679</ele><time>2026-03-20T22:30:11.000Z</time></trkpt>
        <trkpt lat="28.822596" lon="105.531775"><ele>586.3685</ele><time>2026-03-20T22:30:18.000Z</time></trkpt>
        <trkpt lat="28.822537" lon="105.53178"><ele>586.4109</ele><time>2026-03-20T22:30:33.000Z</time></trkpt>
        <trkpt lat="28.822496" lon="105.531788"><ele>586.79736</ele><time>2026-03-20T22:30:39.000Z</time></trkpt>
        <trkpt lat="28.822454" lon="105.531826"><ele>587.00275</ele><time>2026-03-20T22:30:46.000Z</time></trkpt>
        <trkpt lat="28.822415" lon="105.531864"><ele>587.25165</ele><time>2026-03-20T22:30:53.000Z</time></trkpt>
        <trkpt lat="28.822374" lon="105.531902"><ele>588.3312</ele><time>2026-03-20T22:31:02.000Z</time></trkpt>
        <trkpt lat="28.822334" lon="105.531928"><ele>587.28076</ele><time>2026-03-20T22:31:10.000Z</time></trkpt>
        <trkpt lat="28.822303" lon="105.531974"><ele>587.92847</ele><time>2026-03-20T22:31:18.000Z</time></trkpt>
        <trkpt lat="28.822269" lon="105.532015"><ele>588.80194</ele><time>2026-03-20T22:31:26.000Z</time></trkpt>
        <trkpt lat="28.822227" lon="105.532037"><ele>589.3105</ele><time>2026-03-20T22:31:33.000Z</time></trkpt>
        <trkpt lat="28.822187" lon="105.532071"><ele>589.3585</ele><time>2026-03-20T22:31:43.000Z</time></trkpt>
        <trkpt lat="28.822156" lon="105.532114"><ele>589.9657</ele><time>2026-03-20T22:31:55.000Z</time></trkpt>
        <trkpt lat="28.822118" lon="105.532125"><ele>591.81366</ele><time>2026-03-20T22:32:00.000Z</time></trkpt>
        <trkpt lat="28.82207" lon="105.532138"><ele>593.48694</ele><time>2026-03-20T22:32:06.000Z</time></trkpt>
        <trkpt lat="28.822016" lon="105.53214"><ele>594.88654</ele><time>2026-03-20T22:32:16.000Z</time></trkpt>
        <trkpt lat="28.821969" lon="105.532136"><ele>596.5499</ele><time>2026-03-20T22:32:25.000Z</time></trkpt>
        <trkpt lat="28.821921" lon="105.532135"><ele>597.5305</ele><time>2026-03-20T22:32:32.000Z</time></trkpt>
        <trkpt lat="28.821848" lon="105.532121"><ele>599.2709</ele><time>2026-03-20T22:32:39.000Z</time></trkpt>
        <trkpt lat="28.821858" lon="105.532122"><ele>599.51447</ele><time>2026-03-20T22:32:40.000Z</time></trkpt>
        <trkpt lat="28.821834" lon="105.532115"><ele>601.9254</ele><time>2026-03-20T22:32:51.000Z</time></trkpt>
        <trkpt lat="28.821797" lon="105.532126"><ele>603.9314</ele><time>2026-03-20T22:33:02.000Z</time></trkpt>
        <trkpt lat="28.821749" lon="105.532141"><ele>606.9468</ele><time>2026-03-20T22:33:15.000Z</time></trkpt>
        <trkpt lat="28.821697" lon="105.532132"><ele>608.679</ele><time>2026-03-20T22:33:34.000Z</time></trkpt>
        <trkpt lat="28.821665" lon="105.532101"><ele>610.51227</ele><time>2026-03-20T22:33:42.000Z</time></trkpt>
        <trkpt lat="28.821618" lon="105.532074"><ele>612.48785</ele><time>2026-03-20T22:33:50.000Z</time></trkpt>
        <trkpt lat="28.821572" lon="105.532054"><ele>611.7925</ele><time>2026-03-20T22:34:12.000Z</time></trkpt>
        <trkpt lat="28.821536" lon="105.532054"><ele>612.94635</ele><time>2026-03-20T22:34:18.000Z</time></trkpt>
        <trkpt lat="28.821478" lon="105.532073"><ele>613.5357</ele><time>2026-03-20T22:34:28.000Z</time></trkpt>
        <trkpt lat="28.821435" lon="105.532101"><ele>613.1741</ele><time>2026-03-20T22:34:36.000Z</time></trkpt>
        <trkpt lat="28.821391" lon="105.532115"><ele>612.9899</ele><time>2026-03-20T22:34:44.000Z</time></trkpt>
        <trkpt lat="28.821343" lon="105.53212"><ele>613.16876</ele><time>2026-03-20T22:35:13.000Z</time></trkpt>
        <trkpt lat="28.821314" lon="105.532086"><ele>613.91315</ele><time>2026-03-20T22:35:22.000Z</time></trkpt>
        <trkpt lat="28.821277" lon="105.532048"><ele>613.34393</ele><time>2026-03-20T22:35:31.000Z</time></trkpt>
        <trkpt lat="28.821291" lon="105.531998"><ele>611.89996</ele><time>2026-03-20T22:35:41.000Z</time></trkpt>
        <trkpt lat="28.821301" lon="105.531949"><ele>611.93274</ele><time>2026-03-20T22:35:48.000Z</time></trkpt>
        <trkpt lat="28.821308" lon="105.531891"><ele>610.8703</ele><time>2026-03-20T22:36:00.000Z</time></trkpt>
        <trkpt lat="28.821318" lon="105.531836"><ele>609.8172</ele><time>2026-03-20T22:36:08.000Z</time></trkpt>
        <trkpt lat="28.821336" lon="105.531781"><ele>609.0894</ele><time>2026-03-20T22:36:19.000Z</time></trkpt>
        <trkpt lat="28.821363" lon="105.531739"><ele>609.1561</ele><time>2026-03-20T22:36:29.000Z</time></trkpt>
        <trkpt lat="28.821408" lon="105.531715"><ele>608.0617</ele><time>2026-03-20T22:36:39.000Z</time></trkpt>
        <trkpt lat="28.821392" lon="105.531658"><ele>606.91327</ele><time>2026-03-20T22:36:47.000Z</time></trkpt>
        <trkpt lat="28.821356" lon="105.53164"><ele>606.4061</ele><time>2026-03-20T22:36:51.000Z</time></trkpt>
        <trkpt lat="28.821303" lon="105.531618"><ele>605.5541</ele><time>2026-03-20T22:36:57.000Z</time></trkpt>
        <trkpt lat="28.821302" lon="105.531574"><ele>604.5318</ele><time>2026-03-20T22:37:05.000Z</time></trkpt>
        <trkpt lat="28.821292" lon="105.531519"><ele>604.0232</ele><time>2026-03-20T22:37:16.000Z</time></trkpt>
        <trkpt lat="28.821279" lon="105.531465"><ele>601.8792</ele><time>2026-03-20T22:37:29.000Z</time></trkpt>
        <trkpt lat="28.821275" lon="105.531413"><ele>600.33905</ele><time>2026-03-20T22:37:37.000Z</time></trkpt>
        <trkpt lat="28.821277" lon="105.531356"><ele>599.4324</ele><time>2026-03-20T22:37:44.000Z</time></trkpt>
        <trkpt lat="28.821271" lon="105.531298"><ele>598.6438</ele><time>2026-03-20T22:37:55.000Z</time></trkpt>
        <trkpt lat="28.821257" lon="105.531255"><ele>597.8675</ele><time>2026-03-20T22:38:00.000Z</time></trkpt>
        <trkpt lat="28.821214" lon="105.531222"><ele>597.38763</ele><time>2026-03-20T22:38:05.000Z</time></trkpt>
        <trkpt lat="28.821156" lon="105.531208"><ele>594.29456</ele><time>2026-03-20T22:38:17.000Z</time></trkpt>
        <trkpt lat="28.821109" lon="105.531199"><ele>591.8043</ele><time>2026-03-20T22:38:45.000Z</time></trkpt>
        <trkpt lat="28.821066" lon="105.531195"><ele>594.64355</ele><time>2026-03-20T22:39:01.000Z</time></trkpt>
        <trkpt lat="28.82104" lon="105.531241"><ele>591.0609</ele><time>2026-03-20T22:39:17.000Z</time></trkpt>
        <trkpt lat="28.821013" lon="105.531286"><ele>591.63837</ele><time>2026-03-20T22:39:29.000Z</time></trkpt>
        <trkpt lat="28.820998" lon="105.531339"><ele>586.5086</ele><time>2026-03-20T22:40:27.000Z</time></trkpt>
        <trkpt lat="28.820961" lon="105.531381"><ele>583.52045</ele><time>2026-03-20T22:40:44.000Z</time></trkpt>
        <trkpt lat="28.820952" lon="105.531433"><ele>584.13226</ele><time>2026-03-20T22:40:52.000Z</time></trkpt>
        <trkpt lat="28.820928" lon="105.531471"><ele>584.50507</ele><time>2026-03-20T22:40:57.000Z</time></trkpt>
        <trkpt lat="28.820909" lon="105.531527"><ele>582.78467</ele><time>2026-03-20T22:41:09.000Z</time></trkpt>
        <trkpt lat="28.820872" lon="105.531559"><ele>583.5485</ele><time>2026-03-20T22:41:25.000Z</time></trkpt>
        <trkpt lat="28.820859" lon="105.53151"><ele>581.75543</ele><time>2026-03-20T22:41:50.000Z</time></trkpt>
        <trkpt lat="28.820872" lon="105.531459"><ele>580.0274</ele><time>2026-03-20T22:41:58.000Z</time></trkpt>
        <trkpt lat="28.820858" lon="105.531404"><ele>580.05237</ele><time>2026-03-20T22:42:12.000Z</time></trkpt>
        <trkpt lat="28.82084" lon="105.531445"><ele>577.4187</ele><time>2026-03-20T22:42:19.000Z</time></trkpt>
        <trkpt lat="28.82083" lon="105.53151"><ele>576.3113</ele><time>2026-03-20T22:42:34.000Z</time></trkpt>
        <trkpt lat="28.820822" lon="105.531562"><ele>576.03546</ele><time>2026-03-20T22:42:56.000Z</time></trkpt>
        <trkpt lat="28.820782" lon="105.531596"><ele>576.7874</ele><time>2026-03-20T22:43:36.000Z</time></trkpt>
        <trkpt lat="28.820769" lon="105.531649"><ele>575.6214</ele><time>2026-03-20T22:43:53.000Z</time></trkpt>
        <trkpt lat="28.820729" lon="105.531672"><ele>574.74695</ele><time>2026-03-20T22:44:06.000Z</time></trkpt>
        <trkpt lat="28.820712" lon="105.531718"><ele>573.4968</ele><time>2026-03-20T22:44:19.000Z</time></trkpt>
        <trkpt lat="28.820694" lon="105.531774"><ele>572.7486</ele><time>2026-03-20T22:44:28.000Z</time></trkpt>
        <trkpt lat="28.820665" lon="105.53182"><ele>572.10535</ele><time>2026-03-20T22:44:36.000Z</time></trkpt>
        <trkpt lat="28.820632" lon="105.531853"><ele>570.4715</ele><time>2026-03-20T22:44:42.000Z</time></trkpt>
        <trkpt lat="28.820607" lon="105.531901"><ele>571.3517</ele><time>2026-03-20T22:44:52.000Z</time></trkpt>
        <trkpt lat="28.820566" lon="105.531931"><ele>568.57</ele><time>2026-03-20T22:45:07.000Z</time></trkpt>
        <trkpt lat="28.820539" lon="105.531968"><ele>565.5596</ele><time>2026-03-20T22:45:17.000Z</time></trkpt>
        <trkpt lat="28.82052" lon="105.53202"><ele>563.9341</ele><time>2026-03-20T22:45:25.000Z</time></trkpt>
        <trkpt lat="28.820498" lon="105.532071"><ele>562.86194</ele><time>2026-03-20T22:45:36.000Z</time></trkpt>
        <trkpt lat="28.820479" lon="105.532113"><ele>562.1488</ele><time>2026-03-20T22:45:42.000Z</time></trkpt>
        <trkpt lat="28.820453" lon="105.532165"><ele>560.93646</ele><time>2026-03-20T22:45:51.000Z</time></trkpt>
        <trkpt lat="28.820432" lon="105.532213"><ele>559.7648</ele><time>2026-03-20T22:46:01.000Z</time></trkpt>
        <trkpt lat="28.82041" lon="105.532253"><ele>558.7563</ele><time>2026-03-20T22:46:07.000Z</time></trkpt>
        <trkpt lat="28.820387" lon="105.532301"><ele>556.14325</ele><time>2026-03-20T22:46:14.000Z</time></trkpt>
        <trkpt lat="28.820362" lon="105.53235"><ele>554.94257</ele><time>2026-03-20T22:46:21.000Z</time></trkpt>
        <trkpt lat="28.82034" lon="105.532402"><ele>552.5619</ele><time>2026-03-20T22:46:31.000Z</time></trkpt>
        <trkpt lat="28.820318" lon="105.532451"><ele>550.47406</ele><time>2026-03-20T22:46:40.000Z</time></trkpt>
        <trkpt lat="28.8203" lon="105.532506"><ele>549.592</ele><time>2026-03-20T22:46:48.000Z</time></trkpt>
        <trkpt lat="28.820273" lon="105.532554"><ele>549.2547</ele><time>2026-03-20T22:46:55.000Z</time></trkpt>
        <trkpt lat="28.820261" lon="105.532606"><ele>547.5971</ele><time>2026-03-20T22:47:01.000Z</time></trkpt>
        <trkpt lat="28.820241" lon="105.53265"><ele>547.24347</ele><time>2026-03-20T22:47:05.000Z</time></trkpt>
        <trkpt lat="28.820227" lon="105.532708"><ele>547.0884</ele><time>2026-03-20T22:47:11.000Z</time></trkpt>
        <trkpt lat="28.820233" lon="105.532762"><ele>544.85236</ele><time>2026-03-20T22:47:17.000Z</time></trkpt>
        <trkpt lat="28.820236" lon="105.53281"><ele>544.98773</ele><time>2026-03-20T22:47:22.000Z</time></trkpt>
        <trkpt lat="28.82023" lon="105.532874"><ele>544.8057</ele><time>2026-03-20T22:47:28.000Z</time></trkpt>
        <trkpt lat="28.820221" lon="105.53293"><ele>544.6279</ele><time>2026-03-20T22:47:33.000Z</time></trkpt>
        <trkpt lat="28.820207" lon="105.532985"><ele>545.1485</ele><time>2026-03-20T22:47:38.000Z</time></trkpt>
        <trkpt lat="28.820207" lon="105.533045"><ele>544.2559</ele><time>2026-03-20T22:47:44.000Z</time></trkpt>
        <trkpt lat="28.820209" lon="105.5331"><ele>543.9295</ele><time>2026-03-20T22:47:49.000Z</time></trkpt>
        <trkpt lat="28.820212" lon="105.533156"><ele>543.7671</ele><time>2026-03-20T22:47:54.000Z</time></trkpt>
        <trkpt lat="28.820211" lon="105.533213"><ele>543.58154</ele><time>2026-03-20T22:47:59.000Z</time></trkpt>
        <trkpt lat="28.820212" lon="105.533269"><ele>542.6364</ele><time>2026-03-20T22:48:04.000Z</time></trkpt>
        <trkpt lat="28.82021" lon="105.533322"><ele>542.30853</ele><time>2026-03-20T22:48:09.000Z</time></trkpt>
        <trkpt lat="28.820215" lon="105.533384"><ele>542.2379</ele><time>2026-03-20T22:48:16.000Z</time></trkpt>
        <trkpt lat="28.820218" lon="105.533436"><ele>541.77734</ele><time>2026-03-20T22:48:22.000Z</time></trkpt>
        <trkpt lat="28.820225" lon="105.533495"><ele>541.1191</ele><time>2026-03-20T22:48:28.000Z</time></trkpt>
        <trkpt lat="28.820232" lon="105.533546"><ele>540.78265</ele><time>2026-03-20T22:48:34.000Z</time></trkpt>
        <trkpt lat="28.820242" lon="105.533594"><ele>540.5861</ele><time>2026-03-20T22:48:39.000Z</time></trkpt>
        <trkpt lat="28.82026" lon="105.533653"><ele>540.492</ele><time>2026-03-20T22:48:46.000Z</time></trkpt>
        <trkpt lat="28.820282" lon="105.533702"><ele>540.5187</ele><time>2026-03-20T22:48:53.000Z</time></trkpt>
        <trkpt lat="28.820304" lon="105.533751"><ele>539.94995</ele><time>2026-03-20T22:48:58.000Z</time></trkpt>
        <trkpt lat="28.820313" lon="105.533814"><ele>539.4929</ele><time>2026-03-20T22:49:05.000Z</time></trkpt>
        <trkpt lat="28.820316" lon="105.533865"><ele>539.51886</ele><time>2026-03-20T22:49:10.000Z</time></trkpt>
        <trkpt lat="28.820315" lon="105.533918"><ele>539.056</ele><time>2026-03-20T22:49:15.000Z</time></trkpt>
        <trkpt lat="28.820322" lon="105.533977"><ele>538.7423</ele><time>2026-03-20T22:49:20.000Z</time></trkpt>
        <trkpt lat="28.820329" lon="105.534042"><ele>536.936</ele><time>2026-03-20T22:49:27.000Z</time></trkpt>
        <trkpt lat="28.820335" lon="105.534099"><ele>535.89825</ele><time>2026-03-20T22:49:32.000Z</time></trkpt>
        <trkpt lat="28.820346" lon="105.534157"><ele>535.3121</ele><time>2026-03-20T22:49:38.000Z</time></trkpt>
        <trkpt lat="28.820357" lon="105.534207"><ele>534.20953</ele><time>2026-03-20T22:49:43.000Z</time></trkpt>
        <trkpt lat="28.820369" lon="105.53426"><ele>533.1206</ele><time>2026-03-20T22:49:48.000Z</time></trkpt>
        <trkpt lat="28.820384" lon="105.534308"><ele>531.93933</ele><time>2026-03-20T22:49:52.000Z</time></trkpt>
        <trkpt lat="28.820408" lon="105.534359"><ele>531.0207</ele><time>2026-03-20T22:49:57.000Z</time></trkpt>
        <trkpt lat="28.820428" lon="105.534414"><ele>529.80554</ele><time>2026-03-20T22:50:04.000Z</time></trkpt>
        <trkpt lat="28.820456" lon="105.534458"><ele>528.4565</ele><time>2026-03-20T22:50:09.000Z</time></trkpt>
        <trkpt lat="28.820495" lon="105.534506"><ele>527.1777</ele><time>2026-03-20T22:50:19.000Z</time></trkpt>
        <trkpt lat="28.820522" lon="105.534549"><ele>526.878</ele><time>2026-03-20T22:50:25.000Z</time></trkpt>
        <trkpt lat="28.820565" lon="105.534575"><ele>526.0123</ele><time>2026-03-20T22:50:30.000Z</time></trkpt>
        <trkpt lat="28.820631" lon="105.534597"><ele>525.78937</ele><time>2026-03-20T22:50:35.000Z</time></trkpt>
        <trkpt lat="28.820697" lon="105.534609"><ele>525.0338</ele><time>2026-03-20T22:50:43.000Z</time></trkpt>
        <trkpt lat="28.820737" lon="105.53459"><ele>525.75885</ele><time>2026-03-20T22:50:50.000Z</time></trkpt>
        <trkpt lat="28.820782" lon="105.534593"><ele>525.55164</ele><time>2026-03-20T22:50:54.000Z</time></trkpt>
        <trkpt lat="28.820837" lon="105.534595"><ele>525.12103</ele><time>2026-03-20T22:51:01.000Z</time></trkpt>
        <trkpt lat="28.820884" lon="105.534588"><ele>525.14197</ele><time>2026-03-20T22:51:07.000Z</time></trkpt>
        <trkpt lat="28.820929" lon="105.534573"><ele>525.61</ele><time>2026-03-20T22:51:13.000Z</time></trkpt>
        <trkpt lat="28.820973" lon="105.534563"><ele>525.7579</ele><time>2026-03-20T22:51:18.000Z</time></trkpt>
        <trkpt lat="28.821025" lon="105.534554"><ele>525.9084</ele><time>2026-03-20T22:51:24.000Z</time></trkpt>
        <trkpt lat="28.82107" lon="105.534542"><ele>526.2985</ele><time>2026-03-20T22:51:30.000Z</time></trkpt>
        <trkpt lat="28.821106" lon="105.534516"><ele>525.5121</ele><time>2026-03-20T22:51:36.000Z</time></trkpt>
        <trkpt lat="28.821095" lon="105.53444"><ele>46.949547</ele><time>2026-03-20T22:51:46.000Z</time></trkpt>
        <trkpt lat="28.821213" lon="105.534418"><ele>501.2356</ele><time>2026-03-20T22:52:02.000Z</time></trkpt>
        <trkpt lat="28.821228" lon="105.534374"><ele>583.4321</ele><time>2026-03-20T22:52:11.000Z</time></trkpt>
        <trkpt lat="28.821135" lon="105.534332"><ele>537.363</ele><time>2026-03-20T22:52:20.000Z</time></trkpt>
        <trkpt lat="28.821132" lon="105.534276"><ele>531.90247</ele><time>2026-03-20T22:52:38.000Z</time></trkpt>
        <trkpt lat="28.821147" lon="105.534229"><ele>535.92035</ele><time>2026-03-20T22:52:46.000Z</time></trkpt>
        <trkpt lat="28.82115" lon="105.534172"><ele>535.77637</ele><time>2026-03-20T22:52:54.000Z</time></trkpt>
        <trkpt lat="28.821153" lon="105.534121"><ele>536.24054</ele><time>2026-03-20T22:53:01.000Z</time></trkpt>
        <trkpt lat="28.821159" lon="105.534067"><ele>536.6362</ele><time>2026-03-20T22:53:08.000Z</time></trkpt>
        <trkpt lat="28.821176" lon="105.534019"><ele>538.2654</ele><time>2026-03-20T22:53:13.000Z</time></trkpt>
        <trkpt lat="28.821218" lon="105.533989"><ele>540.79626</ele><time>2026-03-20T22:53:25.000Z</time></trkpt>
        <trkpt lat="28.821263" lon="105.533978"><ele>541.01434</ele><time>2026-03-20T22:53:33.000Z</time></trkpt>
        <trkpt lat="28.821315" lon="105.533973"><ele>541.8473</ele><time>2026-03-20T22:53:53.000Z</time></trkpt>
        <trkpt lat="28.821362" lon="105.533981"><ele>541.1968</ele><time>2026-03-20T22:54:00.000Z</time></trkpt>
        <trkpt lat="28.821418" lon="105.533979"><ele>539.5561</ele><time>2026-03-20T22:54:08.000Z</time></trkpt>
        <trkpt lat="28.821467" lon="105.533999"><ele>538.4447</ele><time>2026-03-20T22:54:14.000Z</time></trkpt>
        <trkpt lat="28.821511" lon="105.534041"><ele>537.5034</ele><time>2026-03-20T22:54:28.000Z</time></trkpt>
        <trkpt lat="28.821552" lon="105.534051"><ele>535.96</ele><time>2026-03-20T22:54:36.000Z</time></trkpt>
        <trkpt lat="28.821607" lon="105.534056"><ele>534.12134</ele><time>2026-03-20T22:54:46.000Z</time></trkpt>
        <trkpt lat="28.821653" lon="105.53406"><ele>533.8969</ele><time>2026-03-20T22:54:53.000Z</time></trkpt>
        <trkpt lat="28.821699" lon="105.534054"><ele>532.3656</ele><time>2026-03-20T22:55:00.000Z</time></trkpt>
        <trkpt lat="28.821747" lon="105.534038"><ele>530.9455</ele><time>2026-03-20T22:55:07.000Z</time></trkpt>
        <trkpt lat="28.821793" lon="105.534021"><ele>529.5281</ele><time>2026-03-20T22:55:12.000Z</time></trkpt>
        <trkpt lat="28.82184" lon="105.534021"><ele>528.951</ele><time>2026-03-20T22:55:19.000Z</time></trkpt>
        <trkpt lat="28.82188" lon="105.534055"><ele>528.1465</ele><time>2026-03-20T22:55:27.000Z</time></trkpt>
        <trkpt lat="28.821914" lon="105.534095"><ele>527.4124</ele><time>2026-03-20T22:55:33.000Z</time></trkpt>
        <trkpt lat="28.821961" lon="105.53413"><ele>522.69867</ele><time>2026-03-20T22:55:48.000Z</time></trkpt>
        <trkpt lat="28.821975" lon="105.534175"><ele>521.8961</ele><time>2026-03-20T22:55:55.000Z</time></trkpt>
        <trkpt lat="28.821996" lon="105.534225"><ele>521.73926</ele><time>2026-03-20T22:56:01.000Z</time></trkpt>
        <trkpt lat="28.822031" lon="105.534273"><ele>521.63257</ele><time>2026-03-20T22:56:17.000Z</time></trkpt>
        <trkpt lat="28.822079" lon="105.534269"><ele>519.90857</ele><time>2026-03-20T22:56:42.000Z</time></trkpt>
        <trkpt lat="28.822097" lon="105.534229"><ele>519.9298</ele><time>2026-03-20T22:56:49.000Z</time></trkpt>
        <trkpt lat="28.822128" lon="105.534184"><ele>518.5915</ele><time>2026-03-20T22:56:58.000Z</time></trkpt>
        <trkpt lat="28.822166" lon="105.53415"><ele>518.3672</ele><time>2026-03-20T22:57:05.000Z</time></trkpt>
        <trkpt lat="28.822212" lon="105.534123"><ele>517.8262</ele><time>2026-03-20T22:57:11.000Z</time></trkpt>
        <trkpt lat="28.822249" lon="105.534087"><ele>518.15546</ele><time>2026-03-20T22:57:18.000Z</time></trkpt>
        <trkpt lat="28.822304" lon="105.534064"><ele>518.662</ele><time>2026-03-20T22:57:27.000Z</time></trkpt>
        <trkpt lat="28.822345" lon="105.534039"><ele>518.9393</ele><time>2026-03-20T22:57:33.000Z</time></trkpt>
        <trkpt lat="28.822393" lon="105.534032"><ele>519.6734</ele><time>2026-03-20T22:58:05.000Z</time></trkpt>
        <trkpt lat="28.82242" lon="105.534"><ele>519.392</ele><time>2026-03-20T22:58:14.000Z</time></trkpt>
        <trkpt lat="28.822461" lon="105.533967"><ele>519.5877</ele><time>2026-03-20T22:58:20.000Z</time></trkpt>
        <trkpt lat="28.822512" lon="105.53395"><ele>520.0771</ele><time>2026-03-20T22:58:26.000Z</time></trkpt>
        <trkpt lat="28.82256" lon="105.533934"><ele>519.7268</ele><time>2026-03-20T22:58:33.000Z</time></trkpt>
        <trkpt lat="28.822605" lon="105.533915"><ele>519.5009</ele><time>2026-03-20T22:58:42.000Z</time></trkpt>
        <trkpt lat="28.822648" lon="105.533894"><ele>519.4122</ele><time>2026-03-20T22:58:51.000Z</time></trkpt>
        <trkpt lat="28.822696" lon="105.533885"><ele>518.51416</ele><time>2026-03-20T22:59:00.000Z</time></trkpt>
        <trkpt lat="28.822745" lon="105.533888"><ele>517.0706</ele><time>2026-03-20T22:59:11.000Z</time></trkpt>
        <trkpt lat="28.822791" lon="105.533882"><ele>516.6681</ele><time>2026-03-20T22:59:19.000Z</time></trkpt>
        <trkpt lat="28.822837" lon="105.533877"><ele>516.3537</ele><time>2026-03-20T22:59:25.000Z</time></trkpt>
        <trkpt lat="28.822889" lon="105.533866"><ele>516.24414</ele><time>2026-03-20T22:59:32.000Z</time></trkpt>
        <trkpt lat="28.822846" lon="105.533869"><ele>517.2663</ele><time>2026-03-20T23:00:00.000Z</time></trkpt>
        <trkpt lat="28.822797" lon="105.533872"><ele>517.0137</ele><time>2026-03-20T23:00:08.000Z</time></trkpt>
        <trkpt lat="28.822751" lon="105.533875"><ele>517.2388</ele><time>2026-03-20T23:00:17.000Z</time></trkpt>
        <trkpt lat="28.822709" lon="105.533879"><ele>517.2727</ele><time>2026-03-20T23:00:22.000Z</time></trkpt>
        <trkpt lat="28.822653" lon="105.53389"><ele>517.9515</ele><time>2026-03-20T23:00:29.000Z</time></trkpt>
        <trkpt lat="28.822609" lon="105.533919"><ele>518.14685</ele><time>2026-03-20T23:00:39.000Z</time></trkpt>
        <trkpt lat="28.822657" lon="105.533919"><ele>517.8727</ele><time>2026-03-20T23:00:54.000Z</time></trkpt>
        <trkpt lat="28.822705" lon="105.533909"><ele>517.7047</ele><time>2026-03-20T23:01:01.000Z</time></trkpt>
        <trkpt lat="28.822663" lon="105.533884"><ele>517.0274</ele><time>2026-03-20T23:01:36.000Z</time></trkpt>
        <trkpt lat="28.822622" lon="105.533905"><ele>517.56683</ele><time>2026-03-20T23:01:42.000Z</time></trkpt>
        <trkpt lat="28.822582" lon="105.533928"><ele>518.72595</ele><time>2026-03-20T23:01:48.000Z</time></trkpt>
        <trkpt lat="28.822531" lon="105.533946"><ele>518.6469</ele><time>2026-03-20T23:02:15.000Z</time></trkpt>
        <trkpt lat="28.822493" lon="105.533955"><ele>520.51807</ele><time>2026-03-20T23:02:23.000Z</time></trkpt>
        <trkpt lat="28.822439" lon="105.533964"><ele>521.4912</ele><time>2026-03-20T23:02:30.000Z</time></trkpt>
        <trkpt lat="28.822385" lon="105.533994"><ele>520.3448</ele><time>2026-03-20T23:03:10.000Z</time></trkpt>
        <trkpt lat="28.82235" lon="105.534027"><ele>520.2535</ele><time>2026-03-20T23:03:41.000Z</time></trkpt>
        <trkpt lat="28.822297" lon="105.534055"><ele>520.72253</ele><time>2026-03-20T23:03:52.000Z</time></trkpt>
        <trkpt lat="28.822264" lon="105.534088"><ele>518.8472</ele><time>2026-03-20T23:03:58.000Z</time></trkpt>
        <trkpt lat="28.822218" lon="105.534111"><ele>518.10187</ele><time>2026-03-20T23:04:05.000Z</time></trkpt>
        <trkpt lat="28.822176" lon="105.534136"><ele>517.66864</ele><time>2026-03-20T23:04:12.000Z</time></trkpt>
        <trkpt lat="28.822147" lon="105.534186"><ele>518.2883</ele><time>2026-03-20T23:04:38.000Z</time></trkpt>
        <trkpt lat="28.822105" lon="105.534203"><ele>519.482</ele><time>2026-03-20T23:05:16.000Z</time></trkpt>
        <trkpt lat="28.822072" lon="105.534233"><ele>519.7702</ele><time>2026-03-20T23:05:24.000Z</time></trkpt>
        <trkpt lat="28.822017" lon="105.534289"><ele>523.56177</ele><time>2026-03-20T23:05:38.000Z</time></trkpt>
        <trkpt lat="28.821984" lon="105.534329"><ele>521.0427</ele><time>2026-03-20T23:05:55.000Z</time></trkpt>
        <trkpt lat="28.821948" lon="105.534363"><ele>521.2398</ele><time>2026-03-20T23:06:07.000Z</time></trkpt>
        <trkpt lat="28.82193" lon="105.534426"><ele>521.92505</ele><time>2026-03-20T23:06:19.000Z</time></trkpt>
        <trkpt lat="28.821889" lon="105.534448"><ele>521.646</ele><time>2026-03-20T23:06:46.000Z</time></trkpt>
        <trkpt lat="28.821861" lon="105.534488"><ele>521.8423</ele><time>2026-03-20T23:07:16.000Z</time></trkpt>
        <trkpt lat="28.821834" lon="105.534525"><ele>521.2045</ele><time>2026-03-20T23:07:24.000Z</time></trkpt>
        <trkpt lat="28.821808" lon="105.534585"><ele>521.97974</ele><time>2026-03-20T23:07:43.000Z</time></trkpt>
        <trkpt lat="28.821794" lon="105.534625"><ele>520.9506</ele><time>2026-03-20T23:07:49.000Z</time></trkpt>
        <trkpt lat="28.821777" lon="105.534676"><ele>520.18964</ele><time>2026-03-20T23:07:54.000Z</time></trkpt>
        <trkpt lat="28.821737" lon="105.534713"><ele>519.3671</ele><time>2026-03-20T23:08:01.000Z</time></trkpt>
        <trkpt lat="28.821714" lon="105.534753"><ele>519.9737</ele><time>2026-03-20T23:08:06.000Z</time></trkpt>
        <trkpt lat="28.82169" lon="105.53481"><ele>521.1208</ele><time>2026-03-20T23:08:14.000Z</time></trkpt>
        <trkpt lat="28.821674" lon="105.534862"><ele>520.9326</ele><time>2026-03-20T23:08:20.000Z</time></trkpt>
        <trkpt lat="28.821629" lon="105.53486"><ele>520.215</ele><time>2026-03-20T23:08:42.000Z</time></trkpt>
        <trkpt lat="28.821632" lon="105.534889"><ele>519.4599</ele><time>2026-03-20T23:08:46.000Z</time></trkpt>
        <trkpt lat="28.821603" lon="105.53494"><ele>519.4016</ele><time>2026-03-20T23:08:54.000Z</time></trkpt>
        <trkpt lat="28.821581" lon="105.535003"><ele>519.3441</ele><time>2026-03-20T23:09:00.000Z</time></trkpt>
        <trkpt lat="28.821542" lon="105.535047"><ele>518.2223</ele><time>2026-03-20T23:09:09.000Z</time></trkpt>
        <trkpt lat="28.821501" lon="105.535073"><ele>518.6831</ele><time>2026-03-20T23:09:15.000Z</time></trkpt>
        <trkpt lat="28.821457" lon="105.535106"><ele>517.65076</ele><time>2026-03-20T23:09:22.000Z</time></trkpt>
        <trkpt lat="28.821421" lon="105.535138"><ele>516.8895</ele><time>2026-03-20T23:09:28.000Z</time></trkpt>
        <trkpt lat="28.821369" lon="105.535144"><ele>516.9717</ele><time>2026-03-20T23:09:35.000Z</time></trkpt>
        <trkpt lat="28.821319" lon="105.535153"><ele>515.1973</ele><time>2026-03-20T23:09:47.000Z</time></trkpt>
        <trkpt lat="28.821277" lon="105.535161"><ele>515.5642</ele><time>2026-03-20T23:09:56.000Z</time></trkpt>
        <trkpt lat="28.821228" lon="105.535158"><ele>513.0311</ele><time>2026-03-20T23:10:22.000Z</time></trkpt>
        <trkpt lat="28.821192" lon="105.535156"><ele>513.44275</ele><time>2026-03-20T23:10:27.000Z</time></trkpt>
        <trkpt lat="28.821132" lon="105.535142"><ele>513.68896</ele><time>2026-03-20T23:10:41.000Z</time></trkpt>
        <trkpt lat="28.821089" lon="105.535158"><ele>514.25635</ele><time>2026-03-20T23:10:53.000Z</time></trkpt>
        <trkpt lat="28.821045" lon="105.535162"><ele>514.9616</ele><time>2026-03-20T23:11:02.000Z</time></trkpt>
        <trkpt lat="28.820999" lon="105.535162"><ele>514.29816</ele><time>2026-03-20T23:11:12.000Z</time></trkpt>
        <trkpt lat="28.82096" lon="105.535177"><ele>514.17487</ele><time>2026-03-20T23:11:17.000Z</time></trkpt>
        <trkpt lat="28.820907" lon="105.53519"><ele>516.00995</ele><time>2026-03-20T23:11:29.000Z</time></trkpt>
        <trkpt lat="28.820879" lon="105.535222"><ele>515.95123</ele><time>2026-03-20T23:11:35.000Z</time></trkpt>
        <trkpt lat="28.820847" lon="105.535263"><ele>516.3004</ele><time>2026-03-20T23:11:40.000Z</time></trkpt>
        <trkpt lat="28.820824" lon="105.535319"><ele>515.3992</ele><time>2026-03-20T23:11:47.000Z</time></trkpt>
        <trkpt lat="28.820815" lon="105.535377"><ele>514.47974</ele><time>2026-03-20T23:11:53.000Z</time></trkpt>
        <trkpt lat="28.820809" lon="105.535434"><ele>513.3575</ele><time>2026-03-20T23:12:08.000Z</time></trkpt>
        <trkpt lat="28.820784" lon="105.535473"><ele>512.9831</ele><time>2026-03-20T23:12:17.000Z</time></trkpt>
        <trkpt lat="28.820748" lon="105.535513"><ele>512.9769</ele><time>2026-03-20T23:12:24.000Z</time></trkpt>
        <trkpt lat="28.820732" lon="105.535566"><ele>511.98666</ele><time>2026-03-20T23:12:31.000Z</time></trkpt>
        <trkpt lat="28.820698" lon="105.535603"><ele>511.81882</ele><time>2026-03-20T23:12:38.000Z</time></trkpt>
        <trkpt lat="28.820676" lon="105.535651"><ele>510.28632</ele><time>2026-03-20T23:12:49.000Z</time></trkpt>
        <trkpt lat="28.82068" lon="105.535704"><ele>509.99292</ele><time>2026-03-20T23:13:01.000Z</time></trkpt>
        <trkpt lat="28.820672" lon="105.535755"><ele>510.04956</ele><time>2026-03-20T23:13:07.000Z</time></trkpt>
        <trkpt lat="28.820664" lon="105.53581"><ele>510.317</ele><time>2026-03-20T23:13:13.000Z</time></trkpt>
        <trkpt lat="28.820655" lon="105.535867"><ele>509.4803</ele><time>2026-03-20T23:13:26.000Z</time></trkpt>
        <trkpt lat="28.820619" lon="105.535909"><ele>508.83746</ele><time>2026-03-20T23:13:46.000Z</time></trkpt>
        <trkpt lat="28.820607" lon="105.535951"><ele>509.11612</ele><time>2026-03-20T23:13:51.000Z</time></trkpt>
        <trkpt lat="28.820584" lon="105.536004"><ele>508.8835</ele><time>2026-03-20T23:13:57.000Z</time></trkpt>
        <trkpt lat="28.820535" lon="105.536033"><ele>508.7725</ele><time>2026-03-20T23:14:06.000Z</time></trkpt>
        <trkpt lat="28.82051" lon="105.536073"><ele>509.04153</ele><time>2026-03-20T23:14:13.000Z</time></trkpt>
        <trkpt lat="28.820472" lon="105.536111"><ele>510.0618</ele><time>2026-03-20T23:14:19.000Z</time></trkpt>
        <trkpt lat="28.820421" lon="105.53613"><ele>509.92758</ele><time>2026-03-20T23:14:26.000Z</time></trkpt>
        <trkpt lat="28.820375" lon="105.536166"><ele>510.1136</ele><time>2026-03-20T23:14:35.000Z</time></trkpt>
        <trkpt lat="28.820345" lon="105.536202"><ele>509.79178</ele><time>2026-03-20T23:14:41.000Z</time></trkpt>
        <trkpt lat="28.820313" lon="105.536251"><ele>508.267</ele><time>2026-03-20T23:14:47.000Z</time></trkpt>
        <trkpt lat="28.820274" lon="105.536303"><ele>509.691</ele><time>2026-03-20T23:14:59.000Z</time></trkpt>
        <trkpt lat="28.820249" lon="105.536347"><ele>510.01102</ele><time>2026-03-20T23:15:11.000Z</time></trkpt>
        <trkpt lat="28.82024" lon="105.536396"><ele>510.1322</ele><time>2026-03-20T23:15:18.000Z</time></trkpt>
        <trkpt lat="28.820243" lon="105.536446"><ele>509.37067</ele><time>2026-03-20T23:15:23.000Z</time></trkpt>
        <trkpt lat="28.820238" lon="105.536502"><ele>509.17816</ele><time>2026-03-20T23:15:29.000Z</time></trkpt>
        <trkpt lat="28.820239" lon="105.536566"><ele>508.37482</ele><time>2026-03-20T23:15:40.000Z</time></trkpt>
        <trkpt lat="28.820251" lon="105.536615"><ele>507.30637</ele><time>2026-03-20T23:15:54.000Z</time></trkpt>
        <trkpt lat="28.820276" lon="105.536661"><ele>507.2573</ele><time>2026-03-20T23:16:06.000Z</time></trkpt>
        <trkpt lat="28.820307" lon="105.536708"><ele>506.94806</ele><time>2026-03-20T23:16:13.000Z</time></trkpt>
        <trkpt lat="28.820333" lon="105.536753"><ele>506.40457</ele><time>2026-03-20T23:16:20.000Z</time></trkpt>
        <trkpt lat="28.820349" lon="105.536805"><ele>506.87558</ele><time>2026-03-20T23:16:42.000Z</time></trkpt>
        <trkpt lat="28.820375" lon="105.536847"><ele>507.09567</ele><time>2026-03-20T23:16:50.000Z</time></trkpt>
        <trkpt lat="28.820398" lon="105.536903"><ele>506.6208</ele><time>2026-03-20T23:16:57.000Z</time></trkpt>
        <trkpt lat="28.820423" lon="105.536954"><ele>506.32562</ele><time>2026-03-20T23:17:05.000Z</time></trkpt>
        <trkpt lat="28.820434" lon="105.537011"><ele>506.03015</ele><time>2026-03-20T23:17:17.000Z</time></trkpt>
        <trkpt lat="28.820453" lon="105.537053"><ele>505.1397</ele><time>2026-03-20T23:17:24.000Z</time></trkpt>
        <trkpt lat="28.820507" lon="105.537043"><ele>506.13467</ele><time>2026-03-20T23:17:40.000Z</time></trkpt>
        <trkpt lat="28.820502" lon="105.537082"><ele>505.57156</ele><time>2026-03-20T23:17:45.000Z</time></trkpt>
        <trkpt lat="28.820511" lon="105.537142"><ele>503.99127</ele><time>2026-03-20T23:17:52.000Z</time></trkpt>
        <trkpt lat="28.820531" lon="105.537193"><ele>503.63657</ele><time>2026-03-20T23:17:58.000Z</time></trkpt>
        <trkpt lat="28.820554" lon="105.537242"><ele>503.27512</ele><time>2026-03-20T23:18:04.000Z</time></trkpt>
        <trkpt lat="28.820577" lon="105.537298"><ele>502.14832</ele><time>2026-03-20T23:18:12.000Z</time></trkpt>
        <trkpt lat="28.820594" lon="105.537348"><ele>501.48187</ele><time>2026-03-20T23:18:19.000Z</time></trkpt>
        <trkpt lat="28.82061" lon="105.537407"><ele>499.8962</ele><time>2026-03-20T23:18:30.000Z</time></trkpt>
        <trkpt lat="28.820626" lon="105.537452"><ele>499.14954</ele><time>2026-03-20T23:18:37.000Z</time></trkpt>
        <trkpt lat="28.820641" lon="105.537506"><ele>499.01782</ele><time>2026-03-20T23:18:43.000Z</time></trkpt>
        <trkpt lat="28.820652" lon="105.537561"><ele>498.49933</ele><time>2026-03-20T23:18:49.000Z</time></trkpt>
        <trkpt lat="28.820658" lon="105.537615"><ele>497.3724</ele><time>2026-03-20T23:18:55.000Z</time></trkpt>
        <trkpt lat="28.820703" lon="105.537681"><ele>494.96738</ele><time>2026-03-20T23:19:02.000Z</time></trkpt>
        <trkpt lat="28.820719" lon="105.537739"><ele>494.8963</ele><time>2026-03-20T23:19:11.000Z</time></trkpt>
        <trkpt lat="28.820731" lon="105.537792"><ele>494.71722</ele><time>2026-03-20T23:19:22.000Z</time></trkpt>
        <trkpt lat="28.820764" lon="105.537834"><ele>494.3313</ele><time>2026-03-20T23:19:32.000Z</time></trkpt>
        <trkpt lat="28.820789" lon="105.537885"><ele>494.00412</ele><time>2026-03-20T23:19:46.000Z</time></trkpt>
        <trkpt lat="28.820804" lon="105.537932"><ele>493.7688</ele><time>2026-03-20T23:19:54.000Z</time></trkpt>
        <trkpt lat="28.820832" lon="105.537983"><ele>494.19464</ele><time>2026-03-20T23:20:06.000Z</time></trkpt>
        <trkpt lat="28.820862" lon="105.538023"><ele>493.32443</ele><time>2026-03-20T23:20:17.000Z</time></trkpt>
        <trkpt lat="28.820901" lon="105.538057"><ele>493.7297</ele><time>2026-03-20T23:20:26.000Z</time></trkpt>
        <trkpt lat="28.820903" lon="105.538114"><ele>491.9098</ele><time>2026-03-20T23:20:46.000Z</time></trkpt>
        <trkpt lat="28.820912" lon="105.538171"><ele>490.64453</ele><time>2026-03-20T23:20:59.000Z</time></trkpt>
        <trkpt lat="28.820956" lon="105.538182"><ele>490.99594</ele><time>2026-03-20T23:21:10.000Z</time></trkpt>
        <trkpt lat="28.82098" lon="105.53821"><ele>491.3246</ele><time>2026-03-20T23:21:14.000Z</time></trkpt>
        <trkpt lat="28.821027" lon="105.538234"><ele>491.81195</ele><time>2026-03-20T23:21:23.000Z</time></trkpt>
        <trkpt lat="28.821046" lon="105.538284"><ele>492.80252</ele><time>2026-03-20T23:21:40.000Z</time></trkpt>
        <trkpt lat="28.821073" lon="105.538327"><ele>492.79532</ele><time>2026-03-20T23:21:51.000Z</time></trkpt>
        <trkpt lat="28.8211" lon="105.538364"><ele>492.80054</ele><time>2026-03-20T23:21:56.000Z</time></trkpt>
        <trkpt lat="28.821131" lon="105.538417"><ele>492.4036</ele><time>2026-03-20T23:22:05.000Z</time></trkpt>
        <trkpt lat="28.82112" lon="105.538466"><ele>492.5358</ele><time>2026-03-20T23:22:15.000Z</time></trkpt>
        <trkpt lat="28.821121" lon="105.538516"><ele>492.8851</ele><time>2026-03-20T23:22:23.000Z</time></trkpt>
        <trkpt lat="28.821124" lon="105.538571"><ele>493.15894</ele><time>2026-03-20T23:22:31.000Z</time></trkpt>
        <trkpt lat="28.821118" lon="105.538628"><ele>493.15393</ele><time>2026-03-20T23:22:39.000Z</time></trkpt>
        <trkpt lat="28.821105" lon="105.538686"><ele>493.38574</ele><time>2026-03-20T23:22:46.000Z</time></trkpt>
        <trkpt lat="28.821092" lon="105.53874"><ele>493.28177</ele><time>2026-03-20T23:22:53.000Z</time></trkpt>
        <trkpt lat="28.821079" lon="105.538791"><ele>492.72165</ele><time>2026-03-20T23:23:00.000Z</time></trkpt>
        <trkpt lat="28.821055" lon="105.538837"><ele>492.19897</ele><time>2026-03-20T23:23:23.000Z</time></trkpt>
        <trkpt lat="28.821047" lon="105.538879"><ele>492.2998</ele><time>2026-03-20T23:23:29.000Z</time></trkpt>
        <trkpt lat="28.821016" lon="105.538927"><ele>491.79095</ele><time>2026-03-20T23:23:37.000Z</time></trkpt>
        <trkpt lat="28.821004" lon="105.538976"><ele>491.44315</ele><time>2026-03-20T23:23:43.000Z</time></trkpt>
        <trkpt lat="28.820995" lon="105.539037"><ele>490.71417</ele><time>2026-03-20T23:23:50.000Z</time></trkpt>
        <trkpt lat="28.820985" lon="105.539093"><ele>490.60547</ele><time>2026-03-20T23:23:57.000Z</time></trkpt>
        <trkpt lat="28.820974" lon="105.539146"><ele>490.95285</ele><time>2026-03-20T23:24:05.000Z</time></trkpt>
        <trkpt lat="28.820965" lon="105.539194"><ele>491.04114</ele><time>2026-03-20T23:24:10.000Z</time></trkpt>
        <trkpt lat="28.820967" lon="105.539248"><ele>491.67578</ele><time>2026-03-20T23:24:15.000Z</time></trkpt>
        <trkpt lat="28.820964" lon="105.539309"><ele>493.07797</ele><time>2026-03-20T23:24:20.000Z</time></trkpt>
        <trkpt lat="28.82098" lon="105.539372"><ele>493.171</ele><time>2026-03-20T23:24:37.000Z</time></trkpt>
        <trkpt lat="28.820987" lon="105.539412"><ele>493.7567</ele><time>2026-03-20T23:24:43.000Z</time></trkpt>
        <trkpt lat="28.820998" lon="105.539463"><ele>494.20322</ele><time>2026-03-20T23:24:47.000Z</time></trkpt>
        <trkpt lat="28.821008" lon="105.53953"><ele>493.7184</ele><time>2026-03-20T23:24:55.000Z</time></trkpt>
        <trkpt lat="28.82102" lon="105.539579"><ele>493.14655</ele><time>2026-03-20T23:25:01.000Z</time></trkpt>
        <trkpt lat="28.821035" lon="105.539629"><ele>494.13657</ele><time>2026-03-20T23:25:07.000Z</time></trkpt>
        <trkpt lat="28.821057" lon="105.539689"><ele>495.46658</ele><time>2026-03-20T23:25:32.000Z</time></trkpt>
        <trkpt lat="28.821073" lon="105.539732"><ele>496.09927</ele><time>2026-03-20T23:25:39.000Z</time></trkpt>
        <trkpt lat="28.821092" lon="105.539784"><ele>496.61313</ele><time>2026-03-20T23:25:44.000Z</time></trkpt>
        <trkpt lat="28.821128" lon="105.539834"><ele>496.69998</ele><time>2026-03-20T23:25:50.000Z</time></trkpt>
        <trkpt lat="28.821156" lon="105.539877"><ele>496.2281</ele><time>2026-03-20T23:25:55.000Z</time></trkpt>
        <trkpt lat="28.821184" lon="105.539928"><ele>495.81027</ele><time>2026-03-20T23:26:01.000Z</time></trkpt>
        <trkpt lat="28.821223" lon="105.539963"><ele>493.54892</ele><time>2026-03-20T23:26:07.000Z</time></trkpt>
        <trkpt lat="28.821245" lon="105.540011"><ele>493.05502</ele><time>2026-03-20T23:26:14.000Z</time></trkpt>
        <trkpt lat="28.821252" lon="105.540065"><ele>493.4213</ele><time>2026-03-20T23:26:21.000Z</time></trkpt>
        <trkpt lat="28.82127" lon="105.540115"><ele>491.92444</ele><time>2026-03-20T23:26:28.000Z</time></trkpt>
        <trkpt lat="28.821294" lon="105.540154"><ele>491.63467</ele><time>2026-03-20T23:26:32.000Z</time></trkpt>
        <trkpt lat="28.821322" lon="105.540214"><ele>490.34668</ele><time>2026-03-20T23:26:38.000Z</time></trkpt>
        <trkpt lat="28.821337" lon="105.540265"><ele>489.46335</ele><time>2026-03-20T23:26:42.000Z</time></trkpt>
        <trkpt lat="28.821326" lon="105.540322"><ele>489.4068</ele><time>2026-03-20T23:26:49.000Z</time></trkpt>
        <trkpt lat="28.821298" lon="105.54037"><ele>487.9595</ele><time>2026-03-20T23:26:57.000Z</time></trkpt>
        <trkpt lat="28.821256" lon="105.540414"><ele>487.9102</ele><time>2026-03-20T23:27:19.000Z</time></trkpt>
        <trkpt lat="28.821262" lon="105.540466"><ele>485.98947</ele><time>2026-03-20T23:27:46.000Z</time></trkpt>
        <trkpt lat="28.821249" lon="105.540519"><ele>485.14978</ele><time>2026-03-20T23:27:53.000Z</time></trkpt>
        <trkpt lat="28.821237" lon="105.540576"><ele>485.40433</ele><time>2026-03-20T23:29:03.000Z</time></trkpt>
        <trkpt lat="28.821242" lon="105.540614"><ele>485.36456</ele><time>2026-03-20T23:29:09.000Z</time></trkpt>
        <trkpt lat="28.821227" lon="105.540671"><ele>485.1721</ele><time>2026-03-20T23:29:15.000Z</time></trkpt>
        <trkpt lat="28.821223" lon="105.540723"><ele>486.14557</ele><time>2026-03-20T23:29:19.000Z</time></trkpt>
        <trkpt lat="28.821232" lon="105.540786"><ele>486.05197</ele><time>2026-03-20T23:29:28.000Z</time></trkpt>
        <trkpt lat="28.821194" lon="105.540825"><ele>487.3267</ele><time>2026-03-20T23:30:38.000Z</time></trkpt>
        <trkpt lat="28.82117" lon="105.540865"><ele>487.57852</ele><time>2026-03-20T23:30:46.000Z</time></trkpt>
        <trkpt lat="28.821133" lon="105.54091"><ele>489.1972</ele><time>2026-03-20T23:31:10.000Z</time></trkpt>
        <trkpt lat="28.821106" lon="105.540941"><ele>489.8215</ele><time>2026-03-20T23:31:17.000Z</time></trkpt>
        <trkpt lat="28.821072" lon="105.540995"><ele>492.11533</ele><time>2026-03-20T23:31:35.000Z</time></trkpt>
        <trkpt lat="28.821036" lon="105.541016"><ele>492.4537</ele><time>2026-03-20T23:31:42.000Z</time></trkpt>
        <trkpt lat="28.820992" lon="105.541053"><ele>491.39758</ele><time>2026-03-20T23:31:52.000Z</time></trkpt>
        <trkpt lat="28.820945" lon="105.541086"><ele>491.8919</ele><time>2026-03-20T23:32:02.000Z</time></trkpt>
        <trkpt lat="28.820901" lon="105.541121"><ele>492.48456</ele><time>2026-03-20T23:32:09.000Z</time></trkpt>
        <trkpt lat="28.820872" lon="105.541168"><ele>492.18448</ele><time>2026-03-20T23:32:16.000Z</time></trkpt>
        <trkpt lat="28.820846" lon="105.541217"><ele>492.362</ele><time>2026-03-20T23:32:21.000Z</time></trkpt>
        <trkpt lat="28.820829" lon="105.541271"><ele>493.29086</ele><time>2026-03-20T23:32:27.000Z</time></trkpt>
        <trkpt lat="28.820824" lon="105.541332"><ele>494.33563</ele><time>2026-03-20T23:32:32.000Z</time></trkpt>
        <trkpt lat="28.820819" lon="105.541397"><ele>495.74203</ele><time>2026-03-20T23:32:43.000Z</time></trkpt>
        <trkpt lat="28.820845" lon="105.541446"><ele>496.2278</ele><time>2026-03-20T23:33:38.000Z</time></trkpt>
        <trkpt lat="28.820876" lon="105.541484"><ele>496.51813</ele><time>2026-03-20T23:34:13.000Z</time></trkpt>
        <trkpt lat="28.820892" lon="105.541532"><ele>497.69357</ele><time>2026-03-20T23:34:21.000Z</time></trkpt>
        <trkpt lat="28.820924" lon="105.541581"><ele>497.8732</ele><time>2026-03-20T23:35:09.000Z</time></trkpt>
        <trkpt lat="28.820968" lon="105.541597"><ele>498.48444</ele><time>2026-03-20T23:35:44.000Z</time></trkpt>
        <trkpt lat="28.820984" lon="105.541644"><ele>499.9146</ele><time>2026-03-20T23:35:55.000Z</time></trkpt>
        <trkpt lat="28.821017" lon="105.541682"><ele>499.48022</ele><time>2026-03-20T23:36:20.000Z</time></trkpt>
        <trkpt lat="28.821038" lon="105.541732"><ele>499.94647</ele><time>2026-03-20T23:36:44.000Z</time></trkpt>
        <trkpt lat="28.821056" lon="105.54178"><ele>500.29163</ele><time>2026-03-20T23:37:05.000Z</time></trkpt>
        <trkpt lat="28.821077" lon="105.541816"><ele>502.29486</ele><time>2026-03-20T23:37:11.000Z</time></trkpt>
        <trkpt lat="28.821096" lon="105.541871"><ele>503.4056</ele><time>2026-03-20T23:37:17.000Z</time></trkpt>
        <trkpt lat="28.821108" lon="105.541929"><ele>504.26456</ele><time>2026-03-20T23:37:25.000Z</time></trkpt>
        <trkpt lat="28.821124" lon="105.541978"><ele>504.15256</ele><time>2026-03-20T23:37:34.000Z</time></trkpt>
        <trkpt lat="28.821117" lon="105.54203"><ele>503.67575</ele><time>2026-03-20T23:37:43.000Z</time></trkpt>
        <trkpt lat="28.821132" lon="105.54208"><ele>503.65662</ele><time>2026-03-20T23:37:49.000Z</time></trkpt>
        <trkpt lat="28.821137" lon="105.542142"><ele>504.85788</ele><time>2026-03-20T23:37:55.000Z</time></trkpt>
        <trkpt lat="28.821127" lon="105.542208"><ele>505.89938</ele><time>2026-03-20T23:38:06.000Z</time></trkpt>
        <trkpt lat="28.821094" lon="105.542244"><ele>505.74304</ele><time>2026-03-20T23:38:15.000Z</time></trkpt>
        <trkpt lat="28.821048" lon="105.542258"><ele>507.33423</ele><time>2026-03-20T23:38:27.000Z</time></trkpt>
        <trkpt lat="28.821029" lon="105.542207"><ele>507.9265</ele><time>2026-03-20T23:38:40.000Z</time></trkpt>
        <trkpt lat="28.821015" lon="105.542248"><ele>508.0317</ele><time>2026-03-20T23:38:49.000Z</time></trkpt>
        <trkpt lat="28.821057" lon="105.542273"><ele>505.80353</ele><time>2026-03-20T23:39:15.000Z</time></trkpt>
        <trkpt lat="28.821028" lon="105.542279"><ele>505.72852</ele><time>2026-03-20T23:39:20.000Z</time></trkpt>
        <trkpt lat="28.820963" lon="105.542286"><ele>506.31073</ele><time>2026-03-20T23:39:32.000Z</time></trkpt>
        <trkpt lat="28.820912" lon="105.542297"><ele>507.3579</ele><time>2026-03-20T23:39:43.000Z</time></trkpt>
        <trkpt lat="28.820893" lon="105.542342"><ele>508.3226</ele><time>2026-03-20T23:39:53.000Z</time></trkpt>
        <trkpt lat="28.820856" lon="105.542379"><ele>509.9658</ele><time>2026-03-20T23:40:02.000Z</time></trkpt>
        <trkpt lat="28.820817" lon="105.542416"><ele>511.34732</ele><time>2026-03-20T23:40:35.000Z</time></trkpt>
        <trkpt lat="28.820791" lon="105.542456"><ele>510.7855</ele><time>2026-03-20T23:40:49.000Z</time></trkpt>
        <trkpt lat="28.820746" lon="105.542492"><ele>512.02344</ele><time>2026-03-20T23:41:05.000Z</time></trkpt>
        <trkpt lat="28.820723" lon="105.542535"><ele>510.79974</ele><time>2026-03-20T23:41:15.000Z</time></trkpt>
        <trkpt lat="28.82069" lon="105.542575"><ele>510.555</ele><time>2026-03-20T23:41:26.000Z</time></trkpt>
        <trkpt lat="28.82066" lon="105.542614"><ele>511.8645</ele><time>2026-03-20T23:41:39.000Z</time></trkpt>
        <trkpt lat="28.820623" lon="105.542639"><ele>511.91238</ele><time>2026-03-20T23:41:44.000Z</time></trkpt>
        <trkpt lat="28.820573" lon="105.542665"><ele>512.0895</ele><time>2026-03-20T23:41:50.000Z</time></trkpt>
        <trkpt lat="28.820529" lon="105.542676"><ele>513.87744</ele><time>2026-03-20T23:41:55.000Z</time></trkpt>
        <trkpt lat="28.82049" lon="105.542712"><ele>511.0904</ele><time>2026-03-20T23:42:06.000Z</time></trkpt>
        <trkpt lat="28.820477" lon="105.542762"><ele>510.56537</ele><time>2026-03-20T23:42:18.000Z</time></trkpt>
        <trkpt lat="28.820454" lon="105.542816"><ele>510.87097</ele><time>2026-03-20T23:42:26.000Z</time></trkpt>
        <trkpt lat="28.820452" lon="105.542864"><ele>510.878</ele><time>2026-03-20T23:42:31.000Z</time></trkpt>
        <trkpt lat="28.820488" lon="105.54291"><ele>510.47845</ele><time>2026-03-20T23:42:49.000Z</time></trkpt>
        <trkpt lat="28.820466" lon="105.542955"><ele>512.908</ele><time>2026-03-20T23:43:30.000Z</time></trkpt>
        <trkpt lat="28.82042" lon="105.54294"><ele>509.79877</ele><time>2026-03-20T23:49:13.000Z</time></trkpt>
        <trkpt lat="28.820464" lon="105.54293"><ele>512.2686</ele><time>2026-03-20T23:52:10.000Z</time></trkpt>
        <trkpt lat="28.820502" lon="105.542972"><ele>511.41452</ele><time>2026-03-20T23:54:54.000Z</time></trkpt>
        <trkpt lat="28.820515" lon="105.543007"><ele>512.1221</ele><time>2026-03-20T23:54:58.000Z</time></trkpt>
        <trkpt lat="28.82055" lon="105.543068"><ele>513.4237</ele><time>2026-03-20T23:55:10.000Z</time></trkpt>
        <trkpt lat="28.820571" lon="105.543122"><ele>513.82477</ele><time>2026-03-20T23:55:21.000Z</time></trkpt>
        <trkpt lat="28.820598" lon="105.543163"><ele>512.7624</ele><time>2026-03-20T23:55:26.000Z</time></trkpt>
        <trkpt lat="28.820639" lon="105.543195"><ele>512.9307</ele><time>2026-03-20T23:55:31.000Z</time></trkpt>
        <trkpt lat="28.820681" lon="105.543227"><ele>512.81635</ele><time>2026-03-20T23:55:37.000Z</time></trkpt>
        <trkpt lat="28.82072" lon="105.54326"><ele>512.23737</ele><time>2026-03-20T23:55:42.000Z</time></trkpt>
        <trkpt lat="28.82077" lon="105.543283"><ele>511.61172</ele><time>2026-03-20T23:55:48.000Z</time></trkpt>
        <trkpt lat="28.820814" lon="105.543301"><ele>511.52325</ele><time>2026-03-20T23:55:53.000Z</time></trkpt>
        <trkpt lat="28.820866" lon="105.543316"><ele>511.0178</ele><time>2026-03-20T23:55:59.000Z</time></trkpt>
        <trkpt lat="28.820909" lon="105.543335"><ele>510.74265</ele><time>2026-03-20T23:56:04.000Z</time></trkpt>
        <trkpt lat="28.820945" lon="105.543371"><ele>510.88568</ele><time>2026-03-20T23:56:10.000Z</time></trkpt>
        <trkpt lat="28.820983" lon="105.543406"><ele>511.15134</ele><time>2026-03-20T23:56:17.000Z</time></trkpt>
        <trkpt lat="28.821006" lon="105.54344"><ele>511.36874</ele><time>2026-03-20T23:56:21.000Z</time></trkpt>
        <trkpt lat="28.821047" lon="105.543482"><ele>511.70883</ele><time>2026-03-20T23:56:29.000Z</time></trkpt>
        <trkpt lat="28.82107" lon="105.543533"><ele>511.30078</ele><time>2026-03-20T23:56:53.000Z</time></trkpt>
        <trkpt lat="28.821085" lon="105.543566"><ele>511.4951</ele><time>2026-03-20T23:56:59.000Z</time></trkpt>
        <trkpt lat="28.821117" lon="105.543618"><ele>511.7924</ele><time>2026-03-20T23:57:08.000Z</time></trkpt>
        <trkpt lat="28.821154" lon="105.543661"><ele>511.36868</ele><time>2026-03-20T23:57:14.000Z</time></trkpt>
        <trkpt lat="28.821204" lon="105.543698"><ele>512.0259</ele><time>2026-03-20T23:57:32.000Z</time></trkpt>
        <trkpt lat="28.82123" lon="105.543742"><ele>512.20605</ele><time>2026-03-20T23:57:48.000Z</time></trkpt>
        <trkpt lat="28.821257" lon="105.543777"><ele>511.85184</ele><time>2026-03-20T23:57:52.000Z</time></trkpt>
        <trkpt lat="28.821308" lon="105.543803"><ele>511.37347</ele><time>2026-03-20T23:58:03.000Z</time></trkpt>
        <trkpt lat="28.821358" lon="105.543807"><ele>510.20688</ele><time>2026-03-20T23:58:26.000Z</time></trkpt>
        <trkpt lat="28.82139" lon="105.543797"><ele>509.74554</ele><time>2026-03-20T23:58:30.000Z</time></trkpt>
        <trkpt lat="28.821452" lon="105.543783"><ele>508.76996</ele><time>2026-03-20T23:58:36.000Z</time></trkpt>
        <trkpt lat="28.821505" lon="105.543772"><ele>507.69803</ele><time>2026-03-20T23:58:40.000Z</time></trkpt>
        <trkpt lat="28.821559" lon="105.543761"><ele>506.6869</ele><time>2026-03-20T23:58:44.000Z</time></trkpt>
        <trkpt lat="28.821615" lon="105.543755"><ele>506.0339</ele><time>2026-03-20T23:58:49.000Z</time></trkpt>
        <trkpt lat="28.821671" lon="105.543766"><ele>505.43387</ele><time>2026-03-20T23:58:54.000Z</time></trkpt>
        <trkpt lat="28.821725" lon="105.543792"><ele>504.73752</ele><time>2026-03-20T23:58:59.000Z</time></trkpt>
        <trkpt lat="28.82178" lon="105.543801"><ele>503.1583</ele><time>2026-03-20T23:59:06.000Z</time></trkpt>
        <trkpt lat="28.821825" lon="105.543795"><ele>502.03363</ele><time>2026-03-20T23:59:10.000Z</time></trkpt>
        <trkpt lat="28.821875" lon="105.543795"><ele>500.19797</ele><time>2026-03-20T23:59:14.000Z</time></trkpt>
        <trkpt lat="28.821937" lon="105.543798"><ele>497.73276</ele><time>2026-03-20T23:59:21.000Z</time></trkpt>
        <trkpt lat="28.821984" lon="105.543823"><ele>497.8486</ele><time>2026-03-20T23:59:30.000Z</time></trkpt>
        <trkpt lat="28.821994" lon="105.543876"><ele>497.6421</ele><time>2026-03-20T23:59:43.000Z</time></trkpt>
        <trkpt lat="28.822015" lon="105.543912"><ele>497.45807</ele><time>2026-03-20T23:59:48.000Z</time></trkpt>
        <trkpt lat="28.822031" lon="105.543968"><ele>496.84247</ele><time>2026-03-20T23:59:54.000Z</time></trkpt>
        <trkpt lat="28.822054" lon="105.544016"><ele>495.35788</ele><time>2026-03-20T23:59:59.000Z</time></trkpt>
        <trkpt lat="28.822057" lon="105.544078"><ele>494.20966</ele><time>2026-03-21T00:00:06.000Z</time></trkpt>
        <trkpt lat="28.822086" lon="105.544121"><ele>493.63312</ele><time>2026-03-21T00:00:18.000Z</time></trkpt>
        <trkpt lat="28.822125" lon="105.544156"><ele>492.83502</ele><time>2026-03-21T00:00:38.000Z</time></trkpt>
        <trkpt lat="28.822153" lon="105.544209"><ele>491.451</ele><time>2026-03-21T00:01:08.000Z</time></trkpt>
        <trkpt lat="28.822169" lon="105.544253"><ele>491.33783</ele><time>2026-03-21T00:01:14.000Z</time></trkpt>
        <trkpt lat="28.822186" lon="105.544321"><ele>492.02118</ele><time>2026-03-21T00:01:23.000Z</time></trkpt>
        <trkpt lat="28.822203" lon="105.544368"><ele>492.71655</ele><time>2026-03-21T00:01:28.000Z</time></trkpt>
        <trkpt lat="28.822229" lon="105.544424"><ele>493.52853</ele><time>2026-03-21T00:01:34.000Z</time></trkpt>
        <trkpt lat="28.822257" lon="105.544476"><ele>493.35437</ele><time>2026-03-21T00:01:46.000Z</time></trkpt>
        <trkpt lat="28.822262" lon="105.544526"><ele>494.88635</ele><time>2026-03-21T00:02:07.000Z</time></trkpt>
        <trkpt lat="28.822302" lon="105.544559"><ele>495.42694</ele><time>2026-03-21T00:02:19.000Z</time></trkpt>
        <trkpt lat="28.822342" lon="105.544587"><ele>495.46402</ele><time>2026-03-21T00:02:25.000Z</time></trkpt>
        <trkpt lat="28.82238" lon="105.544629"><ele>495.0848</ele><time>2026-03-21T00:02:55.000Z</time></trkpt>
        <trkpt lat="28.8224" lon="105.544668"><ele>495.99524</ele><time>2026-03-21T00:03:03.000Z</time></trkpt>
        <trkpt lat="28.822447" lon="105.54468"><ele>496.89774</ele><time>2026-03-21T00:03:10.000Z</time></trkpt>
        <trkpt lat="28.822488" lon="105.544698"><ele>497.306</ele><time>2026-03-21T00:03:15.000Z</time></trkpt>
        <trkpt lat="28.822538" lon="105.544733"><ele>497.1763</ele><time>2026-03-21T00:03:23.000Z</time></trkpt>
        <trkpt lat="28.822577" lon="105.544769"><ele>496.84393</ele><time>2026-03-21T00:03:29.000Z</time></trkpt>
        <trkpt lat="28.822616" lon="105.544812"><ele>496.01602</ele><time>2026-03-21T00:03:35.000Z</time></trkpt>
        <trkpt lat="28.822646" lon="105.544861"><ele>495.3227</ele><time>2026-03-21T00:03:43.000Z</time></trkpt>
        <trkpt lat="28.822673" lon="105.544898"><ele>494.41525</ele><time>2026-03-21T00:03:48.000Z</time></trkpt>
        <trkpt lat="28.822709" lon="105.544938"><ele>493.81113</ele><time>2026-03-21T00:03:54.000Z</time></trkpt>
        <trkpt lat="28.82275" lon="105.544972"><ele>493.63898</ele><time>2026-03-21T00:04:00.000Z</time></trkpt>
        <trkpt lat="28.822774" lon="105.545018"><ele>493.40024</ele><time>2026-03-21T00:04:05.000Z</time></trkpt>
        <trkpt lat="28.822814" lon="105.545062"><ele>492.67618</ele><time>2026-03-21T00:04:11.000Z</time></trkpt>
        <trkpt lat="28.822845" lon="105.545104"><ele>492.2089</ele><time>2026-03-21T00:04:16.000Z</time></trkpt>
        <trkpt lat="28.822867" lon="105.545164"><ele>490.49103</ele><time>2026-03-21T00:04:23.000Z</time></trkpt>
        <trkpt lat="28.822863" lon="105.545218"><ele>489.374</ele><time>2026-03-21T00:04:28.000Z</time></trkpt>
        <trkpt lat="28.822848" lon="105.54527"><ele>488.7857</ele><time>2026-03-21T00:04:33.000Z</time></trkpt>
        <trkpt lat="28.822811" lon="105.545306"><ele>487.5979</ele><time>2026-03-21T00:04:39.000Z</time></trkpt>
        <trkpt lat="28.822763" lon="105.545328"><ele>485.54968</ele><time>2026-03-21T00:04:46.000Z</time></trkpt>
        <trkpt lat="28.822707" lon="105.545298"><ele>484.98563</ele><time>2026-03-21T00:04:56.000Z</time></trkpt>
        <trkpt lat="28.822651" lon="105.545292"><ele>484.97464</ele><time>2026-03-21T00:05:17.000Z</time></trkpt>
        <trkpt lat="28.822613" lon="105.545301"><ele>485.19193</ele><time>2026-03-21T00:05:24.000Z</time></trkpt>
        <trkpt lat="28.822559" lon="105.545307"><ele>484.50418</ele><time>2026-03-21T00:05:30.000Z</time></trkpt>
        <trkpt lat="28.822501" lon="105.545302"><ele>484.10147</ele><time>2026-03-21T00:05:37.000Z</time></trkpt>
        <trkpt lat="28.822455" lon="105.545295"><ele>484.1609</ele><time>2026-03-21T00:05:42.000Z</time></trkpt>
        <trkpt lat="28.822405" lon="105.545294"><ele>483.3678</ele><time>2026-03-21T00:05:48.000Z</time></trkpt>
        <trkpt lat="28.822354" lon="105.545306"><ele>483.27075</ele><time>2026-03-21T00:05:55.000Z</time></trkpt>
        <trkpt lat="28.822304" lon="105.545314"><ele>483.79083</ele><time>2026-03-21T00:06:03.000Z</time></trkpt>
        <trkpt lat="28.82226" lon="105.545339"><ele>483.2512</ele><time>2026-03-21T00:06:07.000Z</time></trkpt>
        <trkpt lat="28.822222" lon="105.545366"><ele>482.5982</ele><time>2026-03-21T00:06:10.000Z</time></trkpt>
        <trkpt lat="28.822191" lon="105.545404"><ele>482.62936</ele><time>2026-03-21T00:06:13.000Z</time></trkpt>
        <trkpt lat="28.822184" lon="105.545469"><ele>483.0614</ele><time>2026-03-21T00:06:19.000Z</time></trkpt>
        <trkpt lat="28.822198" lon="105.545525"><ele>483.1222</ele><time>2026-03-21T00:06:24.000Z</time></trkpt>
        <trkpt lat="28.822225" lon="105.545577"><ele>482.75723</ele><time>2026-03-21T00:06:29.000Z</time></trkpt>
        <trkpt lat="28.82223" lon="105.545638"><ele>482.09174</ele><time>2026-03-21T00:06:34.000Z</time></trkpt>
        <trkpt lat="28.82224" lon="105.545701"><ele>481.27502</ele><time>2026-03-21T00:06:40.000Z</time></trkpt>
        <trkpt lat="28.822247" lon="105.545757"><ele>481.16336</ele><time>2026-03-21T00:06:45.000Z</time></trkpt>
        <trkpt lat="28.822256" lon="105.545809"><ele>480.8461</ele><time>2026-03-21T00:06:50.000Z</time></trkpt>
        <trkpt lat="28.822274" lon="105.545861"><ele>480.87283</ele><time>2026-03-21T00:06:54.000Z</time></trkpt>
        <trkpt lat="28.82227" lon="105.545948"><ele>480.0235</ele><time>2026-03-21T00:07:00.000Z</time></trkpt>
        <trkpt lat="28.82229" lon="105.546013"><ele>476.72595</ele><time>2026-03-21T00:07:08.000Z</time></trkpt>
        <trkpt lat="28.822293" lon="105.546063"><ele>474.2554</ele><time>2026-03-21T00:07:14.000Z</time></trkpt>
        <trkpt lat="28.82229" lon="105.546116"><ele>473.46902</ele><time>2026-03-21T00:07:19.000Z</time></trkpt>
        <trkpt lat="28.822314" lon="105.546173"><ele>473.06262</ele><time>2026-03-21T00:07:31.000Z</time></trkpt>
        <trkpt lat="28.822345" lon="105.54621"><ele>471.9074</ele><time>2026-03-21T00:07:39.000Z</time></trkpt>
        <trkpt lat="28.822389" lon="105.546243"><ele>470.28036</ele><time>2026-03-21T00:07:48.000Z</time></trkpt>
        <trkpt lat="28.82244" lon="105.546269"><ele>468.88162</ele><time>2026-03-21T00:08:04.000Z</time></trkpt>
        <trkpt lat="28.822476" lon="105.546286"><ele>468.2169</ele><time>2026-03-21T00:08:09.000Z</time></trkpt>
        <trkpt lat="28.822519" lon="105.546301"><ele>467.59665</ele><time>2026-03-21T00:08:13.000Z</time></trkpt>
        <trkpt lat="28.82257" lon="105.546327"><ele>466.1614</ele><time>2026-03-21T00:08:19.000Z</time></trkpt>
        <trkpt lat="28.82261" lon="105.546353"><ele>465.63153</ele><time>2026-03-21T00:08:24.000Z</time></trkpt>
        <trkpt lat="28.822649" lon="105.546375"><ele>465.7934</ele><time>2026-03-21T00:08:28.000Z</time></trkpt>
        <trkpt lat="28.822697" lon="105.54641"><ele>465.74283</ele><time>2026-03-21T00:08:34.000Z</time></trkpt>
        <trkpt lat="28.822735" lon="105.546446"><ele>465.47653</ele><time>2026-03-21T00:08:40.000Z</time></trkpt>
        <trkpt lat="28.82279" lon="105.54645"><ele>465.4526</ele><time>2026-03-21T00:08:48.000Z</time></trkpt>
        <trkpt lat="28.822824" lon="105.546409"><ele>465.15866</ele><time>2026-03-21T00:08:54.000Z</time></trkpt>
        <trkpt lat="28.822847" lon="105.54636"><ele>464.8924</ele><time>2026-03-21T00:08:59.000Z</time></trkpt>
        <trkpt lat="28.822874" lon="105.546312"><ele>464.39447</ele><time>2026-03-21T00:09:04.000Z</time></trkpt>
        <trkpt lat="28.822888" lon="105.546259"><ele>464.14893</ele><time>2026-03-21T00:09:09.000Z</time></trkpt>
        <trkpt lat="28.822903" lon="105.546205"><ele>464.4785</ele><time>2026-03-21T00:09:16.000Z</time></trkpt>
        <trkpt lat="28.822926" lon="105.546153"><ele>464.6699</ele><time>2026-03-21T00:09:23.000Z</time></trkpt>
        <trkpt lat="28.822961" lon="105.546121"><ele>464.34613</ele><time>2026-03-21T00:09:29.000Z</time></trkpt>
        <trkpt lat="28.822992" lon="105.546079"><ele>464.44434</ele><time>2026-03-21T00:09:37.000Z</time></trkpt>
        <trkpt lat="28.823019" lon="105.546032"><ele>464.52237</ele><time>2026-03-21T00:09:46.000Z</time></trkpt>
        <trkpt lat="28.823023" lon="105.545978"><ele>464.4746</ele><time>2026-03-21T00:10:05.000Z</time></trkpt>
        <trkpt lat="28.823053" lon="105.545962"><ele>464.3462</ele><time>2026-03-21T00:10:10.000Z</time></trkpt>
        <trkpt lat="28.823083" lon="105.545915"><ele>464.88324</ele><time>2026-03-21T00:10:16.000Z</time></trkpt>
        <trkpt lat="28.82312" lon="105.545867"><ele>466.13983</ele><time>2026-03-21T00:10:23.000Z</time></trkpt>
        <trkpt lat="28.823146" lon="105.545813"><ele>467.48642</ele><time>2026-03-21T00:10:33.000Z</time></trkpt>
        <trkpt lat="28.823179" lon="105.54577"><ele>467.6774</ele><time>2026-03-21T00:10:40.000Z</time></trkpt>
        <trkpt lat="28.823226" lon="105.545756"><ele>467.86502</ele><time>2026-03-21T00:10:48.000Z</time></trkpt>
        <trkpt lat="28.823275" lon="105.545764"><ele>468.14096</ele><time>2026-03-21T00:11:12.000Z</time></trkpt>
        <trkpt lat="28.82332" lon="105.545757"><ele>467.70566</ele><time>2026-03-21T00:11:23.000Z</time></trkpt>
        <trkpt lat="28.82337" lon="105.545757"><ele>467.24216</ele><time>2026-03-21T00:11:49.000Z</time></trkpt>
        <trkpt lat="28.823415" lon="105.545761"><ele>466.28943</ele><time>2026-03-21T00:11:57.000Z</time></trkpt>
        <trkpt lat="28.823467" lon="105.545766"><ele>464.8917</ele><time>2026-03-21T00:12:12.000Z</time></trkpt>
        <trkpt lat="28.823516" lon="105.545761"><ele>463.63312</ele><time>2026-03-21T00:12:28.000Z</time></trkpt>
        <trkpt lat="28.823564" lon="105.545765"><ele>462.01288</ele><time>2026-03-21T00:12:40.000Z</time></trkpt>
        <trkpt lat="28.823612" lon="105.545751"><ele>462.0735</ele><time>2026-03-21T00:12:53.000Z</time></trkpt>
        <trkpt lat="28.82365" lon="105.545723"><ele>461.91006</ele><time>2026-03-21T00:13:04.000Z</time></trkpt>
        <trkpt lat="28.823697" lon="105.54571"><ele>461.81342</ele><time>2026-03-21T00:13:16.000Z</time></trkpt>
        <trkpt lat="28.82374" lon="105.545689"><ele>462.681</ele><time>2026-03-21T00:13:26.000Z</time></trkpt>
        <trkpt lat="28.823786" lon="105.545681"><ele>462.4835</ele><time>2026-03-21T00:13:35.000Z</time></trkpt>
        <trkpt lat="28.823828" lon="105.545679"><ele>461.9855</ele><time>2026-03-21T00:13:40.000Z</time></trkpt>
        <trkpt lat="28.823867" lon="105.545646"><ele>461.8257</ele><time>2026-03-21T00:13:47.000Z</time></trkpt>
        <trkpt lat="28.823909" lon="105.545639"><ele>460.9616</ele><time>2026-03-21T00:13:52.000Z</time></trkpt>
        <trkpt lat="28.823959" lon="105.545619"><ele>458.90686</ele><time>2026-03-21T00:14:03.000Z</time></trkpt>
        <trkpt lat="28.824001" lon="105.54559"><ele>456.97406</ele><time>2026-03-21T00:14:15.000Z</time></trkpt>
        <trkpt lat="28.824036" lon="105.545565"><ele>457.35083</ele><time>2026-03-21T00:14:21.000Z</time></trkpt>
        <trkpt lat="28.824084" lon="105.54553"><ele>456.16635</ele><time>2026-03-21T00:14:35.000Z</time></trkpt>
        <trkpt lat="28.824126" lon="105.545503"><ele>454.6876</ele><time>2026-03-21T00:15:17.000Z</time></trkpt>
        <trkpt lat="28.824154" lon="105.545482"><ele>453.13315</ele><time>2026-03-21T00:15:22.000Z</time></trkpt>
        <trkpt lat="28.8242" lon="105.545457"><ele>452.00943</ele><time>2026-03-21T00:15:28.000Z</time></trkpt>
        <trkpt lat="28.824245" lon="105.545423"><ele>451.1554</ele><time>2026-03-21T00:15:33.000Z</time></trkpt>
        <trkpt lat="28.824292" lon="105.545395"><ele>450.71613</ele><time>2026-03-21T00:15:38.000Z</time></trkpt>
        <trkpt lat="28.82434" lon="105.545359"><ele>450.4506</ele><time>2026-03-21T00:15:44.000Z</time></trkpt>
        <trkpt lat="28.824378" lon="105.54533"><ele>449.571</ele><time>2026-03-21T00:15:49.000Z</time></trkpt>
        <trkpt lat="28.824426" lon="105.545294"><ele>448.7954</ele><time>2026-03-21T00:15:58.000Z</time></trkpt>
        <trkpt lat="28.824465" lon="105.545261"><ele>447.68307</ele><time>2026-03-21T00:16:06.000Z</time></trkpt>
        <trkpt lat="28.824495" lon="105.545224"><ele>446.59885</ele><time>2026-03-21T00:16:12.000Z</time></trkpt>
        <trkpt lat="28.824527" lon="105.545188"><ele>446.0738</ele><time>2026-03-21T00:16:17.000Z</time></trkpt>
        <trkpt lat="28.824566" lon="105.545147"><ele>445.45224</ele><time>2026-03-21T00:16:23.000Z</time></trkpt>
        <trkpt lat="28.8246" lon="105.5451"><ele>444.94714</ele><time>2026-03-21T00:16:29.000Z</time></trkpt>
        <trkpt lat="28.824636" lon="105.545062"><ele>444.502</ele><time>2026-03-21T00:16:37.000Z</time></trkpt>
        <trkpt lat="28.824678" lon="105.54503"><ele>443.4088</ele><time>2026-03-21T00:16:55.000Z</time></trkpt>
        <trkpt lat="28.824712" lon="105.545012"><ele>442.55536</ele><time>2026-03-21T00:17:00.000Z</time></trkpt>
        <trkpt lat="28.824776" lon="105.545012"><ele>442.4272</ele><time>2026-03-21T00:17:11.000Z</time></trkpt>
        <trkpt lat="28.824814" lon="105.544981"><ele>441.66437</ele><time>2026-03-21T00:17:20.000Z</time></trkpt>
        <trkpt lat="28.824851" lon="105.54495"><ele>440.6845</ele><time>2026-03-21T00:17:26.000Z</time></trkpt>
        <trkpt lat="28.824904" lon="105.544946"><ele>440.01123</ele><time>2026-03-21T00:17:42.000Z</time></trkpt>
        <trkpt lat="28.824959" lon="105.544942"><ele>439.06177</ele><time>2026-03-21T00:17:48.000Z</time></trkpt>
        <trkpt lat="28.82501" lon="105.544927"><ele>438.2749</ele><time>2026-03-21T00:17:54.000Z</time></trkpt>
        <trkpt lat="28.825073" lon="105.54491"><ele>436.65543</ele><time>2026-03-21T00:18:03.000Z</time></trkpt>
        <trkpt lat="28.825111" lon="105.544867"><ele>437.2472</ele><time>2026-03-21T00:18:17.000Z</time></trkpt>
        <trkpt lat="28.825149" lon="105.544856"><ele>435.96136</ele><time>2026-03-21T00:18:23.000Z</time></trkpt>
        <trkpt lat="28.825202" lon="105.544839"><ele>434.77048</ele><time>2026-03-21T00:18:29.000Z</time></trkpt>
        <trkpt lat="28.825255" lon="105.544821"><ele>434.2208</ele><time>2026-03-21T00:18:35.000Z</time></trkpt>
        <trkpt lat="28.825304" lon="105.544811"><ele>433.96115</ele><time>2026-03-21T00:18:42.000Z</time></trkpt>
        <trkpt lat="28.825353" lon="105.544799"><ele>432.60602</ele><time>2026-03-21T00:18:51.000Z</time></trkpt>
        <trkpt lat="28.825398" lon="105.54479"><ele>431.32806</ele><time>2026-03-21T00:18:56.000Z</time></trkpt>
        <trkpt lat="28.825454" lon="105.544783"><ele>430.2816</ele><time>2026-03-21T00:19:13.000Z</time></trkpt>
        <trkpt lat="28.8255" lon="105.544787"><ele>429.6119</ele><time>2026-03-21T00:19:52.000Z</time></trkpt>
        <trkpt lat="28.825548" lon="105.544788"><ele>428.56683</ele><time>2026-03-21T00:20:09.000Z</time></trkpt>
        <trkpt lat="28.825595" lon="105.544793"><ele>428.1112</ele><time>2026-03-21T00:20:18.000Z</time></trkpt>
        <trkpt lat="28.825641" lon="105.544789"><ele>427.63644</ele><time>2026-03-21T00:20:25.000Z</time></trkpt>
        <trkpt lat="28.825685" lon="105.544764"><ele>425.77856</ele><time>2026-03-21T00:20:32.000Z</time></trkpt>
        <trkpt lat="28.825724" lon="105.544732"><ele>425.14783</ele><time>2026-03-21T00:20:39.000Z</time></trkpt>
        <trkpt lat="28.825768" lon="105.544735"><ele>424.89777</ele><time>2026-03-21T00:20:48.000Z</time></trkpt>
        <trkpt lat="28.825819" lon="105.544742"><ele>422.50595</ele><time>2026-03-21T00:21:07.000Z</time></trkpt>
        <trkpt lat="28.825855" lon="105.544762"><ele>421.7808</ele><time>2026-03-21T00:21:13.000Z</time></trkpt>
        <trkpt lat="28.825889" lon="105.544801"><ele>420.9542</ele><time>2026-03-21T00:21:18.000Z</time></trkpt>
        <trkpt lat="28.825933" lon="105.544826"><ele>419.82233</ele><time>2026-03-21T00:21:24.000Z</time></trkpt>
        <trkpt lat="28.82598" lon="105.544827"><ele>420.16385</ele><time>2026-03-21T00:21:29.000Z</time></trkpt>
        <trkpt lat="28.826025" lon="105.544813"><ele>418.94733</ele><time>2026-03-21T00:21:34.000Z</time></trkpt>
        <trkpt lat="28.826071" lon="105.544793"><ele>417.67395</ele><time>2026-03-21T00:21:40.000Z</time></trkpt>
        <trkpt lat="28.826107" lon="105.544762"><ele>416.20816</ele><time>2026-03-21T00:21:45.000Z</time></trkpt>
        <trkpt lat="28.826157" lon="105.544739"><ele>414.6476</ele><time>2026-03-21T00:21:51.000Z</time></trkpt>
        <trkpt lat="28.826198" lon="105.54473"><ele>414.17184</ele><time>2026-03-21T00:21:54.000Z</time></trkpt>
        <trkpt lat="28.826239" lon="105.544698"><ele>413.6432</ele><time>2026-03-21T00:21:58.000Z</time></trkpt>
        <trkpt lat="28.826283" lon="105.54466"><ele>413.57834</ele><time>2026-03-21T00:22:04.000Z</time></trkpt>
        <trkpt lat="28.826315" lon="105.544626"><ele>413.13055</ele><time>2026-03-21T00:22:09.000Z</time></trkpt>
        <trkpt lat="28.826363" lon="105.544612"><ele>412.80603</ele><time>2026-03-21T00:22:15.000Z</time></trkpt>
        <trkpt lat="28.82642" lon="105.54462"><ele>412.8625</ele><time>2026-03-21T00:22:19.000Z</time></trkpt>
        <trkpt lat="28.826476" lon="105.544612"><ele>411.5776</ele><time>2026-03-21T00:22:25.000Z</time></trkpt>
        <trkpt lat="28.826523" lon="105.544595"><ele>411.44363</ele><time>2026-03-21T00:22:30.000Z</time></trkpt>
        <trkpt lat="28.826562" lon="105.544567"><ele>412.26944</ele><time>2026-03-21T00:22:34.000Z</time></trkpt>
        <trkpt lat="28.826607" lon="105.544527"><ele>412.3412</ele><time>2026-03-21T00:22:40.000Z</time></trkpt>
        <trkpt lat="28.826653" lon="105.544508"><ele>411.82736</ele><time>2026-03-21T00:22:47.000Z</time></trkpt>
        <trkpt lat="28.8267" lon="105.544486"><ele>411.9217</ele><time>2026-03-21T00:22:58.000Z</time></trkpt>
        <trkpt lat="28.826742" lon="105.544458"><ele>410.51624</ele><time>2026-03-21T00:23:06.000Z</time></trkpt>
        <trkpt lat="28.826725" lon="105.544409"><ele>409.6163</ele><time>2026-03-21T00:23:37.000Z</time></trkpt>
        <trkpt lat="28.826697" lon="105.54436"><ele>408.71707</ele><time>2026-03-21T00:23:44.000Z</time></trkpt>
        <trkpt lat="28.826744" lon="105.544314"><ele>407.60452</ele><time>2026-03-21T00:24:11.000Z</time></trkpt>
        <trkpt lat="28.826785" lon="105.544293"><ele>406.07666</ele><time>2026-03-21T00:24:18.000Z</time></trkpt>
        <trkpt lat="28.8268" lon="105.544243"><ele>404.3097</ele><time>2026-03-21T00:24:24.000Z</time></trkpt>
        <trkpt lat="28.826817" lon="105.544192"><ele>402.71555</ele><time>2026-03-21T00:24:30.000Z</time></trkpt>
        <trkpt lat="28.826854" lon="105.544182"><ele>401.1421</ele><time>2026-03-21T00:24:35.000Z</time></trkpt>
        <trkpt lat="28.826902" lon="105.544173"><ele>399.33105</ele><time>2026-03-21T00:24:41.000Z</time></trkpt>
        <trkpt lat="28.826956" lon="105.544169"><ele>396.50198</ele><time>2026-03-21T00:24:51.000Z</time></trkpt>
        <trkpt lat="28.826972" lon="105.544129"><ele>395.74002</ele><time>2026-03-21T00:24:57.000Z</time></trkpt>
        <trkpt lat="28.827016" lon="105.544106"><ele>393.74265</ele><time>2026-03-21T00:25:18.000Z</time></trkpt>
        <trkpt lat="28.827046" lon="105.544078"><ele>393.3919</ele><time>2026-03-21T00:25:22.000Z</time></trkpt>
        <trkpt lat="28.827095" lon="105.544062"><ele>392.75397</ele><time>2026-03-21T00:25:28.000Z</time></trkpt>
        <trkpt lat="28.827128" lon="105.544026"><ele>391.78708</ele><time>2026-03-21T00:25:33.000Z</time></trkpt>
        <trkpt lat="28.827141" lon="105.543966"><ele>390.17673</ele><time>2026-03-21T00:25:40.000Z</time></trkpt>
        <trkpt lat="28.827126" lon="105.543911"><ele>389.37375</ele><time>2026-03-21T00:25:48.000Z</time></trkpt>
        <trkpt lat="28.827113" lon="105.543857"><ele>387.82104</ele><time>2026-03-21T00:25:54.000Z</time></trkpt>
        <trkpt lat="28.827106" lon="105.543799"><ele>385.75006</ele><time>2026-03-21T00:26:02.000Z</time></trkpt>
        <trkpt lat="28.827099" lon="105.543746"><ele>384.74893</ele><time>2026-03-21T00:26:09.000Z</time></trkpt>
        <trkpt lat="28.827069" lon="105.543715"><ele>385.12424</ele><time>2026-03-21T00:26:14.000Z</time></trkpt>
        <trkpt lat="28.827021" lon="105.543692"><ele>384.33218</ele><time>2026-03-21T00:26:20.000Z</time></trkpt>
        <trkpt lat="28.826981" lon="105.54365"><ele>382.81314</ele><time>2026-03-21T00:26:28.000Z</time></trkpt>
        <trkpt lat="28.826944" lon="105.543615"><ele>381.23547</ele><time>2026-03-21T00:26:34.000Z</time></trkpt>
        <trkpt lat="28.82693" lon="105.543565"><ele>380.65454</ele><time>2026-03-21T00:26:40.000Z</time></trkpt>
        <trkpt lat="28.826946" lon="105.543511"><ele>381.1827</ele><time>2026-03-21T00:26:48.000Z</time></trkpt>
        <trkpt lat="28.826958" lon="105.543473"><ele>380.82745</ele><time>2026-03-21T00:26:51.000Z</time></trkpt>
        <trkpt lat="28.826994" lon="105.543418"><ele>379.5017</ele><time>2026-03-21T00:27:12.000Z</time></trkpt>
        <trkpt lat="28.827036" lon="105.543409"><ele>379.0373</ele><time>2026-03-21T00:27:18.000Z</time></trkpt>
        <trkpt lat="28.82709" lon="105.543392"><ele>377.31042</ele><time>2026-03-21T00:27:28.000Z</time></trkpt>
        <trkpt lat="28.82714" lon="105.543393"><ele>376.7115</ele><time>2026-03-21T00:27:35.000Z</time></trkpt>
        <trkpt lat="28.827183" lon="105.543377"><ele>376.1797</ele><time>2026-03-21T00:27:40.000Z</time></trkpt>
        <trkpt lat="28.827233" lon="105.543364"><ele>375.54953</ele><time>2026-03-21T00:27:46.000Z</time></trkpt>
        <trkpt lat="28.827283" lon="105.543358"><ele>374.22333</ele><time>2026-03-21T00:27:52.000Z</time></trkpt>
        <trkpt lat="28.827326" lon="105.543337"><ele>373.34827</ele><time>2026-03-21T00:27:57.000Z</time></trkpt>
        <trkpt lat="28.827378" lon="105.543309"><ele>372.64276</ele><time>2026-03-21T00:28:03.000Z</time></trkpt>
        <trkpt lat="28.827427" lon="105.543287"><ele>372.61276</ele><time>2026-03-21T00:28:09.000Z</time></trkpt>
        <trkpt lat="28.827458" lon="105.543245"><ele>372.8425</ele><time>2026-03-21T00:28:17.000Z</time></trkpt>
        <trkpt lat="28.827464" lon="105.543191"><ele>372.4672</ele><time>2026-03-21T00:28:24.000Z</time></trkpt>
        <trkpt lat="28.827473" lon="105.543143"><ele>372.00443</ele><time>2026-03-21T00:28:30.000Z</time></trkpt>
        <trkpt lat="28.827494" lon="105.543085"><ele>370.04608</ele><time>2026-03-21T00:28:39.000Z</time></trkpt>
        <trkpt lat="28.827539" lon="105.543048"><ele>369.65216</ele><time>2026-03-21T00:28:50.000Z</time></trkpt>
        <trkpt lat="28.827582" lon="105.543018"><ele>368.9402</ele><time>2026-03-21T00:28:56.000Z</time></trkpt>
        <trkpt lat="28.827632" lon="105.54299"><ele>368.38043</ele><time>2026-03-21T00:29:04.000Z</time></trkpt>
        <trkpt lat="28.827674" lon="105.542993"><ele>368.5643</ele><time>2026-03-21T00:29:08.000Z</time></trkpt>
        <trkpt lat="28.827728" lon="105.54299"><ele>368.23682</ele><time>2026-03-21T00:29:14.000Z</time></trkpt>
        <trkpt lat="28.827783" lon="105.54299"><ele>367.46506</ele><time>2026-03-21T00:29:26.000Z</time></trkpt>
        <trkpt lat="28.827824" lon="105.542976"><ele>367.43658</ele><time>2026-03-21T00:29:34.000Z</time></trkpt>
        <trkpt lat="28.827874" lon="105.542956"><ele>367.0743</ele><time>2026-03-21T00:29:40.000Z</time></trkpt>
        <trkpt lat="28.827931" lon="105.542955"><ele>366.77493</ele><time>2026-03-21T00:29:46.000Z</time></trkpt>
        <trkpt lat="28.827972" lon="105.542921"><ele>365.57684</ele><time>2026-03-21T00:29:51.000Z</time></trkpt>
        <trkpt lat="28.828001" lon="105.542872"><ele>365.3202</ele><time>2026-03-21T00:29:59.000Z</time></trkpt>
        <trkpt lat="28.828009" lon="105.542817"><ele>365.59326</ele><time>2026-03-21T00:30:19.000Z</time></trkpt>
        <trkpt lat="28.828011" lon="105.542769"><ele>364.53403</ele><time>2026-03-21T00:30:24.000Z</time></trkpt>
        <trkpt lat="28.828035" lon="105.542717"><ele>365.9241</ele><time>2026-03-21T00:30:30.000Z</time></trkpt>
        <trkpt lat="28.828062" lon="105.542662"><ele>367.11</ele><time>2026-03-21T00:30:48.000Z</time></trkpt>
        <trkpt lat="28.82808" lon="105.542622"><ele>366.76172</ele><time>2026-03-21T00:30:54.000Z</time></trkpt>
        <trkpt lat="28.828108" lon="105.542564"><ele>366.58765</ele><time>2026-03-21T00:31:03.000Z</time></trkpt>
        <trkpt lat="28.828084" lon="105.542517"><ele>367.08463</ele><time>2026-03-21T00:31:08.000Z</time></trkpt>
        <trkpt lat="28.828037" lon="105.542483"><ele>367.85553</ele><time>2026-03-21T00:31:16.000Z</time></trkpt>
        <trkpt lat="28.827996" lon="105.542448"><ele>368.82263</ele><time>2026-03-21T00:31:23.000Z</time></trkpt>
        <trkpt lat="28.827948" lon="105.542441"><ele>369.87897</ele><time>2026-03-21T00:31:59.000Z</time></trkpt>
        <trkpt lat="28.827915" lon="105.542431"><ele>370.49008</ele><time>2026-03-21T00:32:05.000Z</time></trkpt>
        <trkpt lat="28.827909" lon="105.542377"><ele>370.38565</ele><time>2026-03-21T00:32:14.000Z</time></trkpt>
        <trkpt lat="28.827908" lon="105.542324"><ele>370.5156</ele><time>2026-03-21T00:32:19.000Z</time></trkpt>
        <trkpt lat="28.827902" lon="105.542268"><ele>370.9906</ele><time>2026-03-21T00:32:24.000Z</time></trkpt>
        <trkpt lat="28.827905" lon="105.542217"><ele>372.13187</ele><time>2026-03-21T00:32:28.000Z</time></trkpt>
        <trkpt lat="28.827884" lon="105.542167"><ele>372.21863</ele><time>2026-03-21T00:32:32.000Z</time></trkpt>
        <trkpt lat="28.827848" lon="105.542131"><ele>373.06662</ele><time>2026-03-21T00:32:36.000Z</time></trkpt>
        <trkpt lat="28.827806" lon="105.542095"><ele>372.99463</ele><time>2026-03-21T00:32:42.000Z</time></trkpt>
        <trkpt lat="28.827791" lon="105.542046"><ele>372.75162</ele><time>2026-03-21T00:32:47.000Z</time></trkpt>
        <trkpt lat="28.82779" lon="105.54199"><ele>372.3781</ele><time>2026-03-21T00:32:54.000Z</time></trkpt>
        <trkpt lat="28.827776" lon="105.541941"><ele>372.7433</ele><time>2026-03-21T00:33:00.000Z</time></trkpt>
        <trkpt lat="28.827756" lon="105.541887"><ele>372.5305</ele><time>2026-03-21T00:33:08.000Z</time></trkpt>
        <trkpt lat="28.827733" lon="105.541839"><ele>372.48254</ele><time>2026-03-21T00:33:14.000Z</time></trkpt>
        <trkpt lat="28.827721" lon="105.541774"><ele>371.97058</ele><time>2026-03-21T00:33:27.000Z</time></trkpt>
        <trkpt lat="28.827704" lon="105.541737"><ele>372.51843</ele><time>2026-03-21T00:33:32.000Z</time></trkpt>
        <trkpt lat="28.827686" lon="105.541679"><ele>372.69955</ele><time>2026-03-21T00:33:38.000Z</time></trkpt>
        <trkpt lat="28.827683" lon="105.541624"><ele>371.82324</ele><time>2026-03-21T00:33:43.000Z</time></trkpt>
        <trkpt lat="28.82768" lon="105.54156"><ele>370.83148</ele><time>2026-03-21T00:33:52.000Z</time></trkpt>
        <trkpt lat="28.827667" lon="105.541513"><ele>371.34116</ele><time>2026-03-21T00:34:00.000Z</time></trkpt>
        <trkpt lat="28.827655" lon="105.541459"><ele>371.44736</ele><time>2026-03-21T00:34:10.000Z</time></trkpt>
        <trkpt lat="28.82765" lon="105.541406"><ele>371.2572</ele><time>2026-03-21T00:34:19.000Z</time></trkpt>
        <trkpt lat="28.827652" lon="105.541354"><ele>370.92297</ele><time>2026-03-21T00:34:26.000Z</time></trkpt>
        <trkpt lat="28.827641" lon="105.541306"><ele>370.31372</ele><time>2026-03-21T00:34:32.000Z</time></trkpt>
        <trkpt lat="28.82764" lon="105.541248"><ele>369.705</ele><time>2026-03-21T00:34:40.000Z</time></trkpt>
        <trkpt lat="28.827657" lon="105.541194"><ele>369.74057</ele><time>2026-03-21T00:34:50.000Z</time></trkpt>
        <trkpt lat="28.827683" lon="105.541143"><ele>369.73593</ele><time>2026-03-21T00:35:00.000Z</time></trkpt>
        <trkpt lat="28.827712" lon="105.541106"><ele>369.7465</ele><time>2026-03-21T00:35:07.000Z</time></trkpt>
        <trkpt lat="28.827752" lon="105.541088"><ele>369.2447</ele><time>2026-03-21T00:35:12.000Z</time></trkpt>
        <trkpt lat="28.827794" lon="105.541065"><ele>368.90054</ele><time>2026-03-21T00:35:17.000Z</time></trkpt>
        <trkpt lat="28.827844" lon="105.54105"><ele>368.70447</ele><time>2026-03-21T00:35:23.000Z</time></trkpt>
        <trkpt lat="28.827891" lon="105.541038"><ele>368.68704</ele><time>2026-03-21T00:35:29.000Z</time></trkpt>
        <trkpt lat="28.827941" lon="105.541029"><ele>368.53625</ele><time>2026-03-21T00:35:35.000Z</time></trkpt>
        <trkpt lat="28.827993" lon="105.541018"><ele>368.1275</ele><time>2026-03-21T00:35:42.000Z</time></trkpt>
        <trkpt lat="28.828039" lon="105.541011"><ele>367.8545</ele><time>2026-03-21T00:35:48.000Z</time></trkpt>
        <trkpt lat="28.828089" lon="105.541003"><ele>367.32007</ele><time>2026-03-21T00:35:55.000Z</time></trkpt>
        <trkpt lat="28.828137" lon="105.540997"><ele>366.92334</ele><time>2026-03-21T00:36:08.000Z</time></trkpt>
        <trkpt lat="28.828177" lon="105.540973"><ele>368.2663</ele><time>2026-03-21T00:36:17.000Z</time></trkpt>
        <trkpt lat="28.828218" lon="105.540942"><ele>368.18414</ele><time>2026-03-21T00:36:25.000Z</time></trkpt>
        <trkpt lat="28.82825" lon="105.540906"><ele>368.07233</ele><time>2026-03-21T00:36:29.000Z</time></trkpt>
        <trkpt lat="28.828288" lon="105.540853"><ele>369.24786</ele><time>2026-03-21T00:36:38.000Z</time></trkpt>
        <trkpt lat="28.828316" lon="105.540812"><ele>370.0059</ele><time>2026-03-21T00:36:44.000Z</time></trkpt>
        <trkpt lat="28.828344" lon="105.540772"><ele>369.89615</ele><time>2026-03-21T00:36:48.000Z</time></trkpt>
        <trkpt lat="28.828392" lon="105.540734"><ele>369.79227</ele><time>2026-03-21T00:36:54.000Z</time></trkpt>
        <trkpt lat="28.828439" lon="105.540708"><ele>369.5054</ele><time>2026-03-21T00:36:59.000Z</time></trkpt>
        <trkpt lat="28.828487" lon="105.54068"><ele>369.09995</ele><time>2026-03-21T00:37:04.000Z</time></trkpt>
        <trkpt lat="28.828532" lon="105.54065"><ele>368.85382</ele><time>2026-03-21T00:37:09.000Z</time></trkpt>
        <trkpt lat="28.828567" lon="105.540625"><ele>368.8817</ele><time>2026-03-21T00:37:12.000Z</time></trkpt>
        <trkpt lat="28.828616" lon="105.540598"><ele>368.44955</ele><time>2026-03-21T00:37:15.000Z</time></trkpt>
        <trkpt lat="28.828674" lon="105.540568"><ele>367.45157</ele><time>2026-03-21T00:37:19.000Z</time></trkpt>
        <trkpt lat="28.828723" lon="105.540533"><ele>366.63724</ele><time>2026-03-21T00:37:23.000Z</time></trkpt>
        <trkpt lat="28.828777" lon="105.540516"><ele>365.89062</ele><time>2026-03-21T00:37:28.000Z</time></trkpt>
        <trkpt lat="28.828813" lon="105.540502"><ele>365.71915</ele><time>2026-03-21T00:37:31.000Z</time></trkpt>
        <trkpt lat="28.828859" lon="105.54046"><ele>363.5888</ele><time>2026-03-21T00:37:39.000Z</time></trkpt>
        <trkpt lat="28.828898" lon="105.540426"><ele>362.7401</ele><time>2026-03-21T00:37:44.000Z</time></trkpt>
        <trkpt lat="28.828934" lon="105.540395"><ele>362.04834</ele><time>2026-03-21T00:37:48.000Z</time></trkpt>
        <trkpt lat="28.828985" lon="105.540349"><ele>362.8168</ele><time>2026-03-21T00:38:04.000Z</time></trkpt>
        <trkpt lat="28.829019" lon="105.540333"><ele>362.6353</ele><time>2026-03-21T00:38:10.000Z</time></trkpt>
        <trkpt lat="28.829055" lon="105.540297"><ele>361.89017</ele><time>2026-03-21T00:38:16.000Z</time></trkpt>
        <trkpt lat="28.829094" lon="105.540261"><ele>360.3902</ele><time>2026-03-21T00:38:24.000Z</time></trkpt>
        <trkpt lat="28.82913" lon="105.540226"><ele>359.33246</ele><time>2026-03-21T00:38:31.000Z</time></trkpt>
        <trkpt lat="28.829167" lon="105.540187"><ele>358.92996</ele><time>2026-03-21T00:38:37.000Z</time></trkpt>
        <trkpt lat="28.82921" lon="105.540147"><ele>357.9886</ele><time>2026-03-21T00:38:43.000Z</time></trkpt>
        <trkpt lat="28.82925" lon="105.540112"><ele>357.34363</ele><time>2026-03-21T00:38:49.000Z</time></trkpt>
        <trkpt lat="28.829284" lon="105.540085"><ele>356.7724</ele><time>2026-03-21T00:38:53.000Z</time></trkpt>
        <trkpt lat="28.829329" lon="105.540068"><ele>356.13742</ele><time>2026-03-21T00:38:59.000Z</time></trkpt>
        <trkpt lat="28.829379" lon="105.540058"><ele>355.53726</ele><time>2026-03-21T00:39:04.000Z</time></trkpt>
        <trkpt lat="28.829431" lon="105.540051"><ele>355.24197</ele><time>2026-03-21T00:39:09.000Z</time></trkpt>
        <trkpt lat="28.829483" lon="105.540048"><ele>354.93307</ele><time>2026-03-21T00:39:14.000Z</time></trkpt>
        <trkpt lat="28.829532" lon="105.540042"><ele>354.91602</ele><time>2026-03-21T00:39:19.000Z</time></trkpt>
        <trkpt lat="28.82958" lon="105.540036"><ele>354.34073</ele><time>2026-03-21T00:39:24.000Z</time></trkpt>
        <trkpt lat="28.829632" lon="105.540029"><ele>353.96637</ele><time>2026-03-21T00:39:30.000Z</time></trkpt>
        <trkpt lat="28.829681" lon="105.540022"><ele>353.85876</ele><time>2026-03-21T00:39:35.000Z</time></trkpt>
        <trkpt lat="28.829732" lon="105.54001"><ele>354.01416</ele><time>2026-03-21T00:39:42.000Z</time></trkpt>
        <trkpt lat="28.829773" lon="105.539993"><ele>354.365</ele><time>2026-03-21T00:39:47.000Z</time></trkpt>
        <trkpt lat="28.829823" lon="105.539985"><ele>354.43994</ele><time>2026-03-21T00:40:00.000Z</time></trkpt>
        <trkpt lat="28.829869" lon="105.539953"><ele>354.15918</ele><time>2026-03-21T00:40:18.000Z</time></trkpt>
        <trkpt lat="28.829888" lon="105.539899"><ele>353.87357</ele><time>2026-03-21T00:40:34.000Z</time></trkpt>
        <trkpt lat="28.829895" lon="105.539845"><ele>352.63278</ele><time>2026-03-21T00:40:44.000Z</time></trkpt>
        <trkpt lat="28.829876" lon="105.539796"><ele>351.75815</ele><time>2026-03-21T00:40:52.000Z</time></trkpt>
        <trkpt lat="28.829854" lon="105.539741"><ele>349.29907</ele><time>2026-03-21T00:41:07.000Z</time></trkpt>
        <trkpt lat="28.829836" lon="105.539694"><ele>347.24356</ele><time>2026-03-21T00:41:16.000Z</time></trkpt>
        <trkpt lat="28.829803" lon="105.539648"><ele>346.49487</ele><time>2026-03-21T00:41:33.000Z</time></trkpt>
        <trkpt lat="28.829774" lon="105.539612"><ele>346.32425</ele><time>2026-03-21T00:41:41.000Z</time></trkpt>
        <trkpt lat="28.829733" lon="105.539565"><ele>345.59998</ele><time>2026-03-21T00:41:50.000Z</time></trkpt>
        <trkpt lat="28.829701" lon="105.539517"><ele>344.85504</ele><time>2026-03-21T00:41:59.000Z</time></trkpt>
        <trkpt lat="28.829691" lon="105.53946"><ele>343.75555</ele><time>2026-03-21T00:42:12.000Z</time></trkpt>
        <trkpt lat="28.829664" lon="105.539418"><ele>342.93594</ele><time>2026-03-21T00:42:20.000Z</time></trkpt>
        <trkpt lat="28.829614" lon="105.539393"><ele>344.1168</ele><time>2026-03-21T00:42:39.000Z</time></trkpt>
        <trkpt lat="28.829573" lon="105.539379"><ele>344.8074</ele><time>2026-03-21T00:42:45.000Z</time></trkpt>
        <trkpt lat="28.82952" lon="105.539351"><ele>345.24725</ele><time>2026-03-21T00:42:57.000Z</time></trkpt>
        <trkpt lat="28.829477" lon="105.539325"><ele>346.2257</ele><time>2026-03-21T00:43:14.000Z</time></trkpt>
        <trkpt lat="28.829439" lon="105.539311"><ele>346.5148</ele><time>2026-03-21T00:43:19.000Z</time></trkpt>
        <trkpt lat="28.829385" lon="105.539293"><ele>346.18524</ele><time>2026-03-21T00:44:02.000Z</time></trkpt>
        <trkpt lat="28.829346" lon="105.539284"><ele>346.05737</ele><time>2026-03-21T00:44:11.000Z</time></trkpt>
        <trkpt lat="28.829298" lon="105.539259"><ele>346.1804</ele><time>2026-03-21T00:44:18.000Z</time></trkpt>
        <trkpt lat="28.829253" lon="105.539237"><ele>346.89072</ele><time>2026-03-21T00:44:26.000Z</time></trkpt>
        <trkpt lat="28.829206" lon="105.539224"><ele>347.2099</ele><time>2026-03-21T00:44:34.000Z</time></trkpt>
        <trkpt lat="28.829159" lon="105.539217"><ele>347.42935</ele><time>2026-03-21T00:44:43.000Z</time></trkpt>
        <trkpt lat="28.829123" lon="105.539202"><ele>348.6359</ele><time>2026-03-21T00:44:47.000Z</time></trkpt>
        <trkpt lat="28.829066" lon="105.53918"><ele>348.5805</ele><time>2026-03-21T00:45:09.000Z</time></trkpt>
        <trkpt lat="28.829022" lon="105.539168"><ele>348.78027</ele><time>2026-03-21T00:45:18.000Z</time></trkpt>
        <trkpt lat="28.82897" lon="105.539141"><ele>350.1181</ele><time>2026-03-21T00:45:41.000Z</time></trkpt>
        <trkpt lat="28.828935" lon="105.539126"><ele>350.31638</ele><time>2026-03-21T00:45:46.000Z</time></trkpt>
        <trkpt lat="28.828883" lon="105.539109"><ele>350.3184</ele><time>2026-03-21T00:45:52.000Z</time></trkpt>
        <trkpt lat="28.828838" lon="105.539091"><ele>350.46017</ele><time>2026-03-21T00:45:57.000Z</time></trkpt>
        <trkpt lat="28.828788" lon="105.539073"><ele>350.97684</ele><time>2026-03-21T00:46:03.000Z</time></trkpt>
        <trkpt lat="28.828746" lon="105.539046"><ele>351.15012</ele><time>2026-03-21T00:46:09.000Z</time></trkpt>
        <trkpt lat="28.828708" lon="105.539019"><ele>351.73203</ele><time>2026-03-21T00:46:14.000Z</time></trkpt>
        <trkpt lat="28.828669" lon="105.538987"><ele>352.10138</ele><time>2026-03-21T00:46:19.000Z</time></trkpt>
        <trkpt lat="28.828633" lon="105.538946"><ele>352.65518</ele><time>2026-03-21T00:46:25.000Z</time></trkpt>
        <trkpt lat="28.828596" lon="105.538902"><ele>353.87622</ele><time>2026-03-21T00:46:30.000Z</time></trkpt>
        <trkpt lat="28.828566" lon="105.538859"><ele>354.42093</ele><time>2026-03-21T00:46:36.000Z</time></trkpt>
        <trkpt lat="28.82854" lon="105.538816"><ele>354.6074</ele><time>2026-03-21T00:46:42.000Z</time></trkpt>
        <trkpt lat="28.828515" lon="105.53877"><ele>354.82593</ele><time>2026-03-21T00:46:47.000Z</time></trkpt>
        <trkpt lat="28.828484" lon="105.538718"><ele>355.00488</ele><time>2026-03-21T00:46:56.000Z</time></trkpt>
        <trkpt lat="28.82845" lon="105.538678"><ele>355.86954</ele><time>2026-03-21T00:47:04.000Z</time></trkpt>
        <trkpt lat="28.828421" lon="105.538642"><ele>356.72586</ele><time>2026-03-21T00:47:09.000Z</time></trkpt>
        <trkpt lat="28.828392" lon="105.538593"><ele>357.5333</ele><time>2026-03-21T00:47:15.000Z</time></trkpt>
        <trkpt lat="28.828384" lon="105.538533"><ele>357.45126</ele><time>2026-03-21T00:47:22.000Z</time></trkpt>
        <trkpt lat="28.828387" lon="105.538476"><ele>357.6079</ele><time>2026-03-21T00:47:27.000Z</time></trkpt>
        <trkpt lat="28.82839" lon="105.538416"><ele>358.0575</ele><time>2026-03-21T00:47:32.000Z</time></trkpt>
        <trkpt lat="28.828392" lon="105.538356"><ele>358.46265</ele><time>2026-03-21T00:47:38.000Z</time></trkpt>
        <trkpt lat="28.828415" lon="105.538301"><ele>357.69547</ele><time>2026-03-21T00:47:54.000Z</time></trkpt>
        <trkpt lat="28.828396" lon="105.53826"><ele>358.69193</ele><time>2026-03-21T00:48:03.000Z</time></trkpt>
        <trkpt lat="28.82838" lon="105.538211"><ele>359.7234</ele><time>2026-03-21T00:48:09.000Z</time></trkpt>
        <trkpt lat="28.828372" lon="105.538152"><ele>360.61047</ele><time>2026-03-21T00:48:20.000Z</time></trkpt>
        <trkpt lat="28.828372" lon="105.538099"><ele>361.62952</ele><time>2026-03-21T00:48:27.000Z</time></trkpt>
        <trkpt lat="28.828365" lon="105.538045"><ele>362.78317</ele><time>2026-03-21T00:48:33.000Z</time></trkpt>
        <trkpt lat="28.828353" lon="105.537985"><ele>364.49222</ele><time>2026-03-21T00:48:59.000Z</time></trkpt>
        <trkpt lat="28.828351" lon="105.53794"><ele>365.719</ele><time>2026-03-21T00:49:05.000Z</time></trkpt>
        <trkpt lat="28.828333" lon="105.537889"><ele>366.9942</ele><time>2026-03-21T00:49:10.000Z</time></trkpt>
        <trkpt lat="28.828279" lon="105.53786"><ele>368.7869</ele><time>2026-03-21T00:49:24.000Z</time></trkpt>
        <trkpt lat="28.828234" lon="105.537855"><ele>369.1853</ele><time>2026-03-21T00:49:30.000Z</time></trkpt>
        <trkpt lat="28.828219" lon="105.537803"><ele>371.13727</ele><time>2026-03-21T00:49:35.000Z</time></trkpt>
        <trkpt lat="28.828177" lon="105.537786"><ele>371.92722</ele><time>2026-03-21T00:50:00.000Z</time></trkpt>
        <trkpt lat="28.828139" lon="105.537798"><ele>372.35123</ele><time>2026-03-21T00:50:07.000Z</time></trkpt>
        <trkpt lat="28.828084" lon="105.537777"><ele>373.39865</ele><time>2026-03-21T00:50:21.000Z</time></trkpt>
        <trkpt lat="28.828129" lon="105.537787"><ele>374.24777</ele><time>2026-03-21T00:50:34.000Z</time></trkpt>
        <trkpt lat="28.828086" lon="105.537777"><ele>374.4281</ele><time>2026-03-21T00:51:23.000Z</time></trkpt>
        <trkpt lat="28.82804" lon="105.537791"><ele>375.56845</ele><time>2026-03-21T00:51:45.000Z</time></trkpt>
        <trkpt lat="28.827992" lon="105.537796"><ele>375.26642</ele><time>2026-03-21T00:52:02.000Z</time></trkpt>
        <trkpt lat="28.827959" lon="105.537766"><ele>376.40607</ele><time>2026-03-21T00:52:08.000Z</time></trkpt>
        <trkpt lat="28.828002" lon="105.537794"><ele>378.79922</ele><time>2026-03-21T00:52:44.000Z</time></trkpt>
        <trkpt lat="28.828026" lon="105.537838"><ele>377.11566</ele><time>2026-03-21T00:52:51.000Z</time></trkpt>
        <trkpt lat="28.828024" lon="105.537886"><ele>375.30887</ele><time>2026-03-21T00:52:55.000Z</time></trkpt>
        <trkpt lat="28.827979" lon="105.537925"><ele>373.82376</ele><time>2026-03-21T00:53:06.000Z</time></trkpt>
        <trkpt lat="28.827939" lon="105.537891"><ele>374.42926</ele><time>2026-03-21T00:53:14.000Z</time></trkpt>
        <trkpt lat="28.827895" lon="105.537869"><ele>375.9104</ele><time>2026-03-21T00:53:20.000Z</time></trkpt>
        <trkpt lat="28.827855" lon="105.537897"><ele>382.04904</ele><time>2026-03-21T00:53:30.000Z</time></trkpt>
        <trkpt lat="28.827823" lon="105.537936"><ele>384.599</ele><time>2026-03-21T00:53:40.000Z</time></trkpt>
        <trkpt lat="28.82778" lon="105.53797"><ele>387.6054</ele><time>2026-03-21T00:53:54.000Z</time></trkpt>
        <trkpt lat="28.827745" lon="105.538003"><ele>386.6914</ele><time>2026-03-21T00:54:09.000Z</time></trkpt>
        <trkpt lat="28.827712" lon="105.538034"><ele>387.00333</ele><time>2026-03-21T00:54:18.000Z</time></trkpt>
        <trkpt lat="28.827671" lon="105.538059"><ele>387.6523</ele><time>2026-03-21T00:54:25.000Z</time></trkpt>
        <trkpt lat="28.82762" lon="105.538064"><ele>388.64343</ele><time>2026-03-21T00:54:31.000Z</time></trkpt>
        <trkpt lat="28.82757" lon="105.538076"><ele>390.22086</ele><time>2026-03-21T00:54:37.000Z</time></trkpt>
        <trkpt lat="28.827524" lon="105.538051"><ele>393.12732</ele><time>2026-03-21T00:54:53.000Z</time></trkpt>
        <trkpt lat="28.827551" lon="105.538008"><ele>393.06033</ele><time>2026-03-21T00:55:02.000Z</time></trkpt>
        <trkpt lat="28.827584" lon="105.537961"><ele>395.3165</ele><time>2026-03-21T00:55:11.000Z</time></trkpt>
        <trkpt lat="28.827603" lon="105.53791"><ele>397.896</ele><time>2026-03-21T00:55:21.000Z</time></trkpt>
        <trkpt lat="28.827626" lon="105.537886"><ele>398.2868</ele><time>2026-03-21T00:55:23.000Z</time></trkpt>
        <trkpt lat="28.827618" lon="105.537836"><ele>397.88388</ele><time>2026-03-21T00:55:30.000Z</time></trkpt>
        <trkpt lat="28.827603" lon="105.537782"><ele>399.45624</ele><time>2026-03-21T00:55:39.000Z</time></trkpt>
        <trkpt lat="28.827592" lon="105.537729"><ele>404.65137</ele><time>2026-03-21T00:55:48.000Z</time></trkpt>
        <trkpt lat="28.827614" lon="105.537684"><ele>406.8921</ele><time>2026-03-21T00:55:56.000Z</time></trkpt>
        <trkpt lat="28.827631" lon="105.537633"><ele>407.24115</ele><time>2026-03-21T00:56:08.000Z</time></trkpt>
        <trkpt lat="28.827667" lon="105.537593"><ele>406.8951</ele><time>2026-03-21T00:56:16.000Z</time></trkpt>
        <trkpt lat="28.827718" lon="105.537565"><ele>405.98145</ele><time>2026-03-21T00:56:22.000Z</time></trkpt>
        <trkpt lat="28.827751" lon="105.537514"><ele>404.00647</ele><time>2026-03-21T00:56:32.000Z</time></trkpt>
        <trkpt lat="28.827779" lon="105.537468"><ele>404.66345</ele><time>2026-03-21T00:56:42.000Z</time></trkpt>
        <trkpt lat="28.827771" lon="105.537412"><ele>404.88864</ele><time>2026-03-21T00:58:39.000Z</time></trkpt>
        <trkpt lat="28.827738" lon="105.537408"><ele>404.2821</ele><time>2026-03-21T00:58:43.000Z</time></trkpt>
        <trkpt lat="28.827772" lon="105.537379"><ele>408.74512</ele><time>2026-03-21T00:59:44.000Z</time></trkpt>
        <trkpt lat="28.827742" lon="105.537336"><ele>410.90024</ele><time>2026-03-21T01:00:30.000Z</time></trkpt>
        <trkpt lat="28.827712" lon="105.537311"><ele>410.75635</ele><time>2026-03-21T01:00:32.000Z</time></trkpt>
        <trkpt lat="28.827723" lon="105.537298"><ele>411.65656</ele><time>2026-03-21T01:00:37.000Z</time></trkpt>
        <trkpt lat="28.827734" lon="105.537236"><ele>414.66428</ele><time>2026-03-21T01:01:11.000Z</time></trkpt>
        <trkpt lat="28.827726" lon="105.537187"><ele>416.21002</ele><time>2026-03-21T01:01:19.000Z</time></trkpt>
        <trkpt lat="28.827736" lon="105.537131"><ele>417.86874</ele><time>2026-03-21T01:01:27.000Z</time></trkpt>
        <trkpt lat="28.827746" lon="105.537082"><ele>419.04898</ele><time>2026-03-21T01:01:34.000Z</time></trkpt>
        <trkpt lat="28.827757" lon="105.537028"><ele>420.1029</ele><time>2026-03-21T01:01:40.000Z</time></trkpt>
        <trkpt lat="28.827724" lon="105.537008"><ele>420.31613</ele><time>2026-03-21T01:01:45.000Z</time></trkpt>
        <trkpt lat="28.827667" lon="105.537019"><ele>420.1609</ele><time>2026-03-21T01:01:52.000Z</time></trkpt>
        <trkpt lat="28.827623" lon="105.537055"><ele>421.13513</ele><time>2026-03-21T01:01:59.000Z</time></trkpt>
        <trkpt lat="28.827579" lon="105.537079"><ele>422.9702</ele><time>2026-03-21T01:02:10.000Z</time></trkpt>
        <trkpt lat="28.827545" lon="105.537115"><ele>424.18442</ele><time>2026-03-21T01:02:16.000Z</time></trkpt>
        <trkpt lat="28.827511" lon="105.537165"><ele>425.1444</ele><time>2026-03-21T01:02:24.000Z</time></trkpt>
        <trkpt lat="28.827475" lon="105.537204"><ele>426.6113</ele><time>2026-03-21T01:02:43.000Z</time></trkpt>
        <trkpt lat="28.827453" lon="105.537246"><ele>425.84772</ele><time>2026-03-21T01:02:53.000Z</time></trkpt>
        <trkpt lat="28.827421" lon="105.537287"><ele>425.86716</ele><time>2026-03-21T01:02:59.000Z</time></trkpt>
        <trkpt lat="28.827374" lon="105.537296"><ele>427.0919</ele><time>2026-03-21T01:03:06.000Z</time></trkpt>
        <trkpt lat="28.827338" lon="105.537258"><ele>429.0185</ele><time>2026-03-21T01:03:15.000Z</time></trkpt>
        <trkpt lat="28.827301" lon="105.537235"><ele>429.65228</ele><time>2026-03-21T01:03:21.000Z</time></trkpt>
        <trkpt lat="28.827252" lon="105.537234"><ele>430.62738</ele><time>2026-03-21T01:03:28.000Z</time></trkpt>
        <trkpt lat="28.827203" lon="105.53722"><ele>432.61627</ele><time>2026-03-21T01:03:41.000Z</time></trkpt>
        <trkpt lat="28.827168" lon="105.537186"><ele>433.85156</ele><time>2026-03-21T01:03:48.000Z</time></trkpt>
        <trkpt lat="28.827117" lon="105.537187"><ele>436.8105</ele><time>2026-03-21T01:03:59.000Z</time></trkpt>
        <trkpt lat="28.827101" lon="105.537247"><ele>437.51376</ele><time>2026-03-21T01:04:15.000Z</time></trkpt>
        <trkpt lat="28.827081" lon="105.537296"><ele>437.3662</ele><time>2026-03-21T01:04:23.000Z</time></trkpt>
        <trkpt lat="28.827052" lon="105.537341"><ele>437.2936</ele><time>2026-03-21T01:04:31.000Z</time></trkpt>
        <trkpt lat="28.827023" lon="105.537385"><ele>437.2247</ele><time>2026-03-21T01:04:37.000Z</time></trkpt>
        <trkpt lat="28.826987" lon="105.537438"><ele>436.72903</ele><time>2026-03-21T01:04:48.000Z</time></trkpt>
        <trkpt lat="28.826969" lon="105.53748"><ele>436.20944</ele><time>2026-03-21T01:04:53.000Z</time></trkpt>
        <trkpt lat="28.826927" lon="105.537509"><ele>436.01138</ele><time>2026-03-21T01:04:59.000Z</time></trkpt>
        <trkpt lat="28.826874" lon="105.537501"><ele>437.549</ele><time>2026-03-21T01:05:11.000Z</time></trkpt>
        <trkpt lat="28.826827" lon="105.537483"><ele>437.3596</ele><time>2026-03-21T01:05:18.000Z</time></trkpt>
        <trkpt lat="28.826784" lon="105.537495"><ele>438.74365</ele><time>2026-03-21T01:05:22.000Z</time></trkpt>
        <trkpt lat="28.826731" lon="105.537504"><ele>439.89838</ele><time>2026-03-21T01:05:27.000Z</time></trkpt>
        <trkpt lat="28.826692" lon="105.537529"><ele>440.1608</ele><time>2026-03-21T01:05:31.000Z</time></trkpt>
        <trkpt lat="28.826659" lon="105.537579"><ele>439.9235</ele><time>2026-03-21T01:05:39.000Z</time></trkpt>
        <trkpt lat="28.826622" lon="105.537602"><ele>439.30496</ele><time>2026-03-21T01:05:46.000Z</time></trkpt>
        <trkpt lat="28.826569" lon="105.537594"><ele>439.88983</ele><time>2026-03-21T01:06:00.000Z</time></trkpt>
        <trkpt lat="28.826524" lon="105.537582"><ele>440.3426</ele><time>2026-03-21T01:06:09.000Z</time></trkpt>
        <trkpt lat="28.826465" lon="105.537568"><ele>442.99323</ele><time>2026-03-21T01:06:29.000Z</time></trkpt>
        <trkpt lat="28.82642" lon="105.537563"><ele>443.9708</ele><time>2026-03-21T01:06:44.000Z</time></trkpt>
        <trkpt lat="28.826374" lon="105.537541"><ele>443.43848</ele><time>2026-03-21T01:06:53.000Z</time></trkpt>
        <trkpt lat="28.826324" lon="105.537552"><ele>444.7741</ele><time>2026-03-21T01:06:58.000Z</time></trkpt>
        <trkpt lat="28.826262" lon="105.53756"><ele>444.33432</ele><time>2026-03-21T01:07:07.000Z</time></trkpt>
        <trkpt lat="28.826217" lon="105.537552"><ele>444.6449</ele><time>2026-03-21T01:07:11.000Z</time></trkpt>
        <trkpt lat="28.826167" lon="105.537572"><ele>445.72775</ele><time>2026-03-21T01:07:20.000Z</time></trkpt>
        <trkpt lat="28.826166" lon="105.537527"><ele>446.70013</ele><time>2026-03-21T01:07:28.000Z</time></trkpt>
        <trkpt lat="28.826147" lon="105.537469"><ele>448.2378</ele><time>2026-03-21T01:07:42.000Z</time></trkpt>
        <trkpt lat="28.826102" lon="105.537453"><ele>449.69168</ele><time>2026-03-21T01:07:59.000Z</time></trkpt>
        <trkpt lat="28.826059" lon="105.537439"><ele>449.92914</ele><time>2026-03-21T01:08:12.000Z</time></trkpt>
        <trkpt lat="28.826016" lon="105.537419"><ele>451.26392</ele><time>2026-03-21T01:08:28.000Z</time></trkpt>
        <trkpt lat="28.825973" lon="105.537412"><ele>452.33493</ele><time>2026-03-21T01:08:34.000Z</time></trkpt>
        <trkpt lat="28.82593" lon="105.537362"><ele>452.82587</ele><time>2026-03-21T01:08:42.000Z</time></trkpt>
        <trkpt lat="28.8259" lon="105.537315"><ele>453.35724</ele><time>2026-03-21T01:08:53.000Z</time></trkpt>
        <trkpt lat="28.825854" lon="105.53728"><ele>454.7396</ele><time>2026-03-21T01:09:05.000Z</time></trkpt>
        <trkpt lat="28.825821" lon="105.537242"><ele>455.38965</ele><time>2026-03-21T01:09:15.000Z</time></trkpt>
        <trkpt lat="28.82578" lon="105.53723"><ele>455.64938</ele><time>2026-03-21T01:09:21.000Z</time></trkpt>
        <trkpt lat="28.825732" lon="105.53722"><ele>456.91483</ele><time>2026-03-21T01:09:30.000Z</time></trkpt>
        <trkpt lat="28.825684" lon="105.537204"><ele>457.9432</ele><time>2026-03-21T01:09:43.000Z</time></trkpt>
        <trkpt lat="28.825653" lon="105.537172"><ele>459.08124</ele><time>2026-03-21T01:09:50.000Z</time></trkpt>
        <trkpt lat="28.825614" lon="105.537145"><ele>460.35803</ele><time>2026-03-21T01:09:56.000Z</time></trkpt>
        <trkpt lat="28.825567" lon="105.537124"><ele>461.35938</ele><time>2026-03-21T01:10:05.000Z</time></trkpt>
        <trkpt lat="28.825523" lon="105.53711"><ele>461.53015</ele><time>2026-03-21T01:10:15.000Z</time></trkpt>
        <trkpt lat="28.825481" lon="105.537082"><ele>461.82675</ele><time>2026-03-21T01:10:23.000Z</time></trkpt>
        <trkpt lat="28.825422" lon="105.537057"><ele>461.95377</ele><time>2026-03-21T01:10:32.000Z</time></trkpt>
        <trkpt lat="28.825383" lon="105.537021"><ele>463.17612</ele><time>2026-03-21T01:10:41.000Z</time></trkpt>
        <trkpt lat="28.825355" lon="105.536984"><ele>463.65518</ele><time>2026-03-21T01:10:48.000Z</time></trkpt>
        <trkpt lat="28.825316" lon="105.536949"><ele>463.46063</ele><time>2026-03-21T01:10:56.000Z</time></trkpt>
        <trkpt lat="28.825275" lon="105.536921"><ele>463.4992</ele><time>2026-03-21T01:11:02.000Z</time></trkpt>
        <trkpt lat="28.825231" lon="105.536898"><ele>464.1742</ele><time>2026-03-21T01:11:08.000Z</time></trkpt>
        <trkpt lat="28.825182" lon="105.536887"><ele>464.61194</ele><time>2026-03-21T01:11:14.000Z</time></trkpt>
        <trkpt lat="28.825134" lon="105.536896"><ele>464.51443</ele><time>2026-03-21T01:11:20.000Z</time></trkpt>
        <trkpt lat="28.825085" lon="105.536909"><ele>464.7999</ele><time>2026-03-21T01:11:26.000Z</time></trkpt>
        <trkpt lat="28.825035" lon="105.536904"><ele>465.00403</ele><time>2026-03-21T01:11:32.000Z</time></trkpt>
        <trkpt lat="28.824992" lon="105.536882"><ele>465.5033</ele><time>2026-03-21T01:11:37.000Z</time></trkpt>
        <trkpt lat="28.824944" lon="105.536857"><ele>465.4055</ele><time>2026-03-21T01:11:45.000Z</time></trkpt>
        <trkpt lat="28.824901" lon="105.53685"><ele>465.85458</ele><time>2026-03-21T01:11:51.000Z</time></trkpt>
        <trkpt lat="28.824857" lon="105.536836"><ele>466.0496</ele><time>2026-03-21T01:11:57.000Z</time></trkpt>
        <trkpt lat="28.824808" lon="105.536822"><ele>466.32294</ele><time>2026-03-21T01:12:04.000Z</time></trkpt>
        <trkpt lat="28.824765" lon="105.536791"><ele>466.72116</ele><time>2026-03-21T01:12:10.000Z</time></trkpt>
        <trkpt lat="28.824733" lon="105.536758"><ele>467.5676</ele><time>2026-03-21T01:12:14.000Z</time></trkpt>
        <trkpt lat="28.824693" lon="105.536718"><ele>467.77744</ele><time>2026-03-21T01:12:19.000Z</time></trkpt>
        <trkpt lat="28.824659" lon="105.536675"><ele>468.00873</ele><time>2026-03-21T01:12:24.000Z</time></trkpt>
        <trkpt lat="28.824643" lon="105.536625"><ele>467.64685</ele><time>2026-03-21T01:12:29.000Z</time></trkpt>
        <trkpt lat="28.824632" lon="105.53657"><ele>467.95883</ele><time>2026-03-21T01:12:36.000Z</time></trkpt>
        <trkpt lat="28.824632" lon="105.536519"><ele>468.30927</ele><time>2026-03-21T01:12:41.000Z</time></trkpt>
        <trkpt lat="28.824658" lon="105.536469"><ele>468.41983</ele><time>2026-03-21T01:12:46.000Z</time></trkpt>
        <trkpt lat="28.824701" lon="105.536431"><ele>468.73816</ele><time>2026-03-21T01:12:51.000Z</time></trkpt>
        <trkpt lat="28.824747" lon="105.5364"><ele>469.383</ele><time>2026-03-21T01:12:57.000Z</time></trkpt>
        <trkpt lat="28.824724" lon="105.53637"><ele>469.86365</ele><time>2026-03-21T01:13:05.000Z</time></trkpt>
        <trkpt lat="28.824681" lon="105.536336"><ele>470.1499</ele><time>2026-03-21T01:13:15.000Z</time></trkpt>
        <trkpt lat="28.82466" lon="105.536286"><ele>469.84677</ele><time>2026-03-21T01:13:23.000Z</time></trkpt>
        <trkpt lat="28.824663" lon="105.536238"><ele>469.89407</ele><time>2026-03-21T01:13:28.000Z</time></trkpt>
        <trkpt lat="28.824702" lon="105.536186"><ele>470.1328</ele><time>2026-03-21T01:13:34.000Z</time></trkpt>
        <trkpt lat="28.824737" lon="105.536142"><ele>470.7219</ele><time>2026-03-21T01:13:41.000Z</time></trkpt>
        <trkpt lat="28.8247" lon="105.536117"><ele>470.89273</ele><time>2026-03-21T01:13:51.000Z</time></trkpt>
        <trkpt lat="28.824651" lon="105.536087"><ele>471.00162</ele><time>2026-03-21T01:13:59.000Z</time></trkpt>
        <trkpt lat="28.824612" lon="105.536064"><ele>471.33298</ele><time>2026-03-21T01:14:04.000Z</time></trkpt>
        <trkpt lat="28.824567" lon="105.536049"><ele>471.62192</ele><time>2026-03-21T01:14:09.000Z</time></trkpt>
        <trkpt lat="28.824567" lon="105.535997"><ele>472.5402</ele><time>2026-03-21T01:14:21.000Z</time></trkpt>
        <trkpt lat="28.824555" lon="105.535941"><ele>473.34305</ele><time>2026-03-21T01:14:27.000Z</time></trkpt>
        <trkpt lat="28.824545" lon="105.535885"><ele>473.57187</ele><time>2026-03-21T01:14:33.000Z</time></trkpt>
        <trkpt lat="28.824532" lon="105.53583"><ele>474.30353</ele><time>2026-03-21T01:14:41.000Z</time></trkpt>
        <trkpt lat="28.824484" lon="105.535821"><ele>474.4734</ele><time>2026-03-21T01:14:52.000Z</time></trkpt>
        <trkpt lat="28.824434" lon="105.535815"><ele>474.98987</ele><time>2026-03-21T01:14:59.000Z</time></trkpt>
        <trkpt lat="28.824384" lon="105.535801"><ele>475.39197</ele><time>2026-03-21T01:15:05.000Z</time></trkpt>
        <trkpt lat="28.824338" lon="105.53578"><ele>475.40747</ele><time>2026-03-21T01:15:12.000Z</time></trkpt>
        <trkpt lat="28.824291" lon="105.535746"><ele>476.3837</ele><time>2026-03-21T01:15:21.000Z</time></trkpt>
        <trkpt lat="28.824247" lon="105.53574"><ele>476.3621</ele><time>2026-03-21T01:15:27.000Z</time></trkpt>
        <trkpt lat="28.824202" lon="105.535765"><ele>476.76144</ele><time>2026-03-21T01:15:33.000Z</time></trkpt>
        <trkpt lat="28.824151" lon="105.535775"><ele>476.58936</ele><time>2026-03-21T01:15:37.000Z</time></trkpt>
        <trkpt lat="28.824104" lon="105.535762"><ele>476.41916</ele><time>2026-03-21T01:15:42.000Z</time></trkpt>
        <trkpt lat="28.824055" lon="105.535732"><ele>476.96985</ele><time>2026-03-21T01:15:49.000Z</time></trkpt>
        <trkpt lat="28.824034" lon="105.53567"><ele>475.66812</ele><time>2026-03-21T01:15:56.000Z</time></trkpt>
        <trkpt lat="28.824029" lon="105.535611"><ele>475.63058</ele><time>2026-03-21T01:16:03.000Z</time></trkpt>
        <trkpt lat="28.824016" lon="105.535557"><ele>475.85553</ele><time>2026-03-21T01:16:09.000Z</time></trkpt>
        <trkpt lat="28.824011" lon="105.535504"><ele>476.23975</ele><time>2026-03-21T01:16:14.000Z</time></trkpt>
        <trkpt lat="28.824006" lon="105.535449"><ele>476.7873</ele><time>2026-03-21T01:16:19.000Z</time></trkpt>
        <trkpt lat="28.823974" lon="105.535403"><ele>477.79233</ele><time>2026-03-21T01:16:33.000Z</time></trkpt>
        <trkpt lat="28.823964" lon="105.535364"><ele>479.2121</ele><time>2026-03-21T01:16:38.000Z</time></trkpt>
        <trkpt lat="28.823978" lon="105.535303"><ele>480.31146</ele><time>2026-03-21T01:16:45.000Z</time></trkpt>
        <trkpt lat="28.824" lon="105.535249"><ele>481.1191</ele><time>2026-03-21T01:16:50.000Z</time></trkpt>
        <trkpt lat="28.823996" lon="105.535185"><ele>482.1605</ele><time>2026-03-21T01:17:00.000Z</time></trkpt>
        <trkpt lat="28.824" lon="105.535132"><ele>482.21133</ele><time>2026-03-21T01:17:08.000Z</time></trkpt>
        <trkpt lat="28.823998" lon="105.535073"><ele>482.68048</ele><time>2026-03-21T01:17:19.000Z</time></trkpt>
        <trkpt lat="28.823973" lon="105.535024"><ele>483.5829</ele><time>2026-03-21T01:17:33.000Z</time></trkpt>
        <trkpt lat="28.823976" lon="105.53497"><ele>483.88562</ele><time>2026-03-21T01:17:41.000Z</time></trkpt>
        <trkpt lat="28.82397" lon="105.534911"><ele>484.2971</ele><time>2026-03-21T01:17:49.000Z</time></trkpt>
        <trkpt lat="28.823939" lon="105.534873"><ele>484.32895</ele><time>2026-03-21T01:17:57.000Z</time></trkpt>
        <trkpt lat="28.823917" lon="105.534827"><ele>485.2304</ele><time>2026-03-21T01:18:04.000Z</time></trkpt>
        <trkpt lat="28.823889" lon="105.534786"><ele>485.5497</ele><time>2026-03-21T01:18:10.000Z</time></trkpt>
        <trkpt lat="28.823862" lon="105.534736"><ele>486.8719</ele><time>2026-03-21T01:18:19.000Z</time></trkpt>
        <trkpt lat="28.823847" lon="105.534684"><ele>487.70126</ele><time>2026-03-21T01:18:28.000Z</time></trkpt>
        <trkpt lat="28.823829" lon="105.53463"><ele>488.0944</ele><time>2026-03-21T01:18:35.000Z</time></trkpt>
        <trkpt lat="28.823833" lon="105.534573"><ele>488.7252</ele><time>2026-03-21T01:18:45.000Z</time></trkpt>
        <trkpt lat="28.823828" lon="105.534525"><ele>488.4515</ele><time>2026-03-21T01:18:51.000Z</time></trkpt>
        <trkpt lat="28.823782" lon="105.534489"><ele>489.43488</ele><time>2026-03-21T01:19:12.000Z</time></trkpt>
        <trkpt lat="28.823756" lon="105.534456"><ele>489.89053</ele><time>2026-03-21T01:19:19.000Z</time></trkpt>
        <trkpt lat="28.823728" lon="105.534406"><ele>491.60168</ele><time>2026-03-21T01:19:29.000Z</time></trkpt>
        <trkpt lat="28.823692" lon="105.534372"><ele>492.93613</ele><time>2026-03-21T01:19:37.000Z</time></trkpt>
        <trkpt lat="28.823644" lon="105.534357"><ele>493.75644</ele><time>2026-03-21T01:19:43.000Z</time></trkpt>
        <trkpt lat="28.823594" lon="105.534333"><ele>495.01355</ele><time>2026-03-21T01:19:49.000Z</time></trkpt>
        <trkpt lat="28.823553" lon="105.534315"><ele>496.26083</ele><time>2026-03-21T01:19:53.000Z</time></trkpt>
        <trkpt lat="28.823525" lon="105.534272"><ele>497.00992</ele><time>2026-03-21T01:19:59.000Z</time></trkpt>
        <trkpt lat="28.823509" lon="105.53422"><ele>498.3511</ele><time>2026-03-21T01:20:03.000Z</time></trkpt>
        <trkpt lat="28.823486" lon="105.534166"><ele>497.0136</ele><time>2026-03-21T01:20:17.000Z</time></trkpt>
        <trkpt lat="28.823486" lon="105.534122"><ele>498.3501</ele><time>2026-03-21T01:20:24.000Z</time></trkpt>
        <trkpt lat="28.823521" lon="105.534087"><ele>500.15137</ele><time>2026-03-21T01:20:32.000Z</time></trkpt>
        <trkpt lat="28.823553" lon="105.534047"><ele>499.83176</ele><time>2026-03-21T01:20:40.000Z</time></trkpt>
        <trkpt lat="28.823575" lon="105.534001"><ele>500.60483</ele><time>2026-03-21T01:20:48.000Z</time></trkpt>
        <trkpt lat="28.823589" lon="105.533944"><ele>502.01236</ele><time>2026-03-21T01:20:59.000Z</time></trkpt>
        <trkpt lat="28.823627" lon="105.533918"><ele>501.12476</ele><time>2026-03-21T01:21:06.000Z</time></trkpt>
        <trkpt lat="28.823673" lon="105.533913"><ele>499.78406</ele><time>2026-03-21T01:21:11.000Z</time></trkpt>
        <trkpt lat="28.823725" lon="105.533918"><ele>498.37033</ele><time>2026-03-21T01:21:17.000Z</time></trkpt>
        <trkpt lat="28.823774" lon="105.533922"><ele>496.57892</ele><time>2026-03-21T01:21:23.000Z</time></trkpt>
        <trkpt lat="28.823824" lon="105.533903"><ele>494.49997</ele><time>2026-03-21T01:21:35.000Z</time></trkpt>
        <trkpt lat="28.823868" lon="105.533903"><ele>493.72064</ele><time>2026-03-21T01:21:45.000Z</time></trkpt>
        <trkpt lat="28.823912" lon="105.533904"><ele>491.96103</ele><time>2026-03-21T01:21:52.000Z</time></trkpt>
        <trkpt lat="28.823967" lon="105.533887"><ele>492.7175</ele><time>2026-03-21T01:22:01.000Z</time></trkpt>
        <trkpt lat="28.824012" lon="105.533869"><ele>493.33316</ele><time>2026-03-21T01:22:07.000Z</time></trkpt>
        <trkpt lat="28.824068" lon="105.533858"><ele>491.2544</ele><time>2026-03-21T01:22:15.000Z</time></trkpt>
        <trkpt lat="28.824113" lon="105.533831"><ele>492.2957</ele><time>2026-03-21T01:22:31.000Z</time></trkpt>
        <trkpt lat="28.824152" lon="105.533824"><ele>492.54492</ele><time>2026-03-21T01:22:36.000Z</time></trkpt>
        <trkpt lat="28.8242" lon="105.533819"><ele>491.67517</ele><time>2026-03-21T01:22:41.000Z</time></trkpt>
        <trkpt lat="28.824251" lon="105.533816"><ele>491.11487</ele><time>2026-03-21T01:22:46.000Z</time></trkpt>
        <trkpt lat="28.824301" lon="105.533818"><ele>491.76657</ele><time>2026-03-21T01:22:51.000Z</time></trkpt>
        <trkpt lat="28.824351" lon="105.533824"><ele>491.98715</ele><time>2026-03-21T01:22:57.000Z</time></trkpt>
        <trkpt lat="28.82439" lon="105.533797"><ele>492.21216</ele><time>2026-03-21T01:23:03.000Z</time></trkpt>
        <trkpt lat="28.824438" lon="105.53378"><ele>492.5743</ele><time>2026-03-21T01:23:09.000Z</time></trkpt>
        <trkpt lat="28.824496" lon="105.533772"><ele>491.9279</ele><time>2026-03-21T01:23:15.000Z</time></trkpt>
        <trkpt lat="28.824541" lon="105.533748"><ele>492.00192</ele><time>2026-03-21T01:23:20.000Z</time></trkpt>
        <trkpt lat="28.824584" lon="105.533705"><ele>491.7895</ele><time>2026-03-21T01:23:26.000Z</time></trkpt>
        <trkpt lat="28.824619" lon="105.533657"><ele>492.33127</ele><time>2026-03-21T01:23:32.000Z</time></trkpt>
        <trkpt lat="28.824643" lon="105.533609"><ele>494.1455</ele><time>2026-03-21T01:23:37.000Z</time></trkpt>
        <trkpt lat="28.824695" lon="105.533589"><ele>493.5399</ele><time>2026-03-21T01:23:44.000Z</time></trkpt>
        <trkpt lat="28.824726" lon="105.533556"><ele>492.7518</ele><time>2026-03-21T01:23:49.000Z</time></trkpt>
        <trkpt lat="28.824734" lon="105.533496"><ele>492.3708</ele><time>2026-03-21T01:23:56.000Z</time></trkpt>
        <trkpt lat="28.824732" lon="105.533433"><ele>493.60953</ele><time>2026-03-21T01:24:06.000Z</time></trkpt>
        <trkpt lat="28.824732" lon="105.533387"><ele>494.17084</ele><time>2026-03-21T01:24:11.000Z</time></trkpt>
        <trkpt lat="28.824742" lon="105.533322"><ele>494.72754</ele><time>2026-03-21T01:24:21.000Z</time></trkpt>
        <trkpt lat="28.824758" lon="105.533268"><ele>495.80435</ele><time>2026-03-21T01:24:43.000Z</time></trkpt>
        <trkpt lat="28.824761" lon="105.533219"><ele>495.16312</ele><time>2026-03-21T01:24:52.000Z</time></trkpt>
        <trkpt lat="28.824757" lon="105.53317"><ele>494.94476</ele><time>2026-03-21T01:24:57.000Z</time></trkpt>
        <trkpt lat="28.82477" lon="105.53311"><ele>495.44138</ele><time>2026-03-21T01:25:07.000Z</time></trkpt>
        <trkpt lat="28.824763" lon="105.533057"><ele>495.07843</ele><time>2026-03-21T01:25:14.000Z</time></trkpt>
        <trkpt lat="28.824756" lon="105.533005"><ele>495.43506</ele><time>2026-03-21T01:25:19.000Z</time></trkpt>
        <trkpt lat="28.82476" lon="105.532948"><ele>496.11563</ele><time>2026-03-21T01:25:25.000Z</time></trkpt>
        <trkpt lat="28.824771" lon="105.532894"><ele>496.10486</ele><time>2026-03-21T01:25:32.000Z</time></trkpt>
        <trkpt lat="28.824778" lon="105.532836"><ele>495.2245</ele><time>2026-03-21T01:25:39.000Z</time></trkpt>
        <trkpt lat="28.824761" lon="105.532781"><ele>495.82297</ele><time>2026-03-21T01:25:52.000Z</time></trkpt>
        <trkpt lat="28.824742" lon="105.532722"><ele>496.01114</ele><time>2026-03-21T01:26:00.000Z</time></trkpt>
        <trkpt lat="28.82473" lon="105.532669"><ele>496.18427</ele><time>2026-03-21T01:26:07.000Z</time></trkpt>
        <trkpt lat="28.824713" lon="105.532622"><ele>496.33963</ele><time>2026-03-21T01:26:12.000Z</time></trkpt>
        <trkpt lat="28.824696" lon="105.532567"><ele>496.18546</ele><time>2026-03-21T01:26:18.000Z</time></trkpt>
        <trkpt lat="28.824647" lon="105.532529"><ele>498.62094</ele><time>2026-03-21T01:26:50.000Z</time></trkpt>
        <trkpt lat="28.824647" lon="105.532483"><ele>499.7823</ele><time>2026-03-21T01:26:56.000Z</time></trkpt>
        <trkpt lat="28.824621" lon="105.532428"><ele>500.91977</ele><time>2026-03-21T01:27:03.000Z</time></trkpt>
        <trkpt lat="28.824615" lon="105.532377"><ele>501.49075</ele><time>2026-03-21T01:27:07.000Z</time></trkpt>
        <trkpt lat="28.82459" lon="105.532314"><ele>502.38547</ele><time>2026-03-21T01:27:16.000Z</time></trkpt>
        <trkpt lat="28.824567" lon="105.532266"><ele>503.87</ele><time>2026-03-21T01:27:21.000Z</time></trkpt>
        <trkpt lat="28.824552" lon="105.532216"><ele>505.05365</ele><time>2026-03-21T01:27:26.000Z</time></trkpt>
        <trkpt lat="28.82454" lon="105.532157"><ele>506.54135</ele><time>2026-03-21T01:27:31.000Z</time></trkpt>
        <trkpt lat="28.824537" lon="105.5321"><ele>507.68515</ele><time>2026-03-21T01:27:35.000Z</time></trkpt>
        <trkpt lat="28.824557" lon="105.532022"><ele>505.99875</ele><time>2026-03-21T01:27:52.000Z</time></trkpt>
        <trkpt lat="28.82456" lon="105.531984"><ele>505.34152</ele><time>2026-03-21T01:27:56.000Z</time></trkpt>
        <trkpt lat="28.82453" lon="105.53194"><ele>505.02487</ele><time>2026-03-21T01:28:02.000Z</time></trkpt>
        <trkpt lat="28.824502" lon="105.531893"><ele>505.48923</ele><time>2026-03-21T01:28:07.000Z</time></trkpt>
        <trkpt lat="28.824484" lon="105.531831"><ele>505.88565</ele><time>2026-03-21T01:28:14.000Z</time></trkpt>
        <trkpt lat="28.824497" lon="105.531784"><ele>505.68707</ele><time>2026-03-21T01:28:19.000Z</time></trkpt>
        <trkpt lat="28.824483" lon="105.531737"><ele>505.14203</ele><time>2026-03-21T01:28:24.000Z</time></trkpt>
        <trkpt lat="28.824462" lon="105.53169"><ele>505.2708</ele><time>2026-03-21T01:28:29.000Z</time></trkpt>
        <trkpt lat="28.824437" lon="105.531626"><ele>505.194</ele><time>2026-03-21T01:28:37.000Z</time></trkpt>
        <trkpt lat="28.824416" lon="105.531579"><ele>506.1329</ele><time>2026-03-21T01:28:42.000Z</time></trkpt>
        <trkpt lat="28.824405" lon="105.531531"><ele>505.95007</ele><time>2026-03-21T01:28:46.000Z</time></trkpt>
        <trkpt lat="28.824399" lon="105.531475"><ele>505.39322</ele><time>2026-03-21T01:28:51.000Z</time></trkpt>
        <trkpt lat="28.824397" lon="105.531418"><ele>504.2949</ele><time>2026-03-21T01:28:56.000Z</time></trkpt>
        <trkpt lat="28.824384" lon="105.531361"><ele>504.05338</ele><time>2026-03-21T01:29:02.000Z</time></trkpt>
        <trkpt lat="28.824352" lon="105.531325"><ele>504.8094</ele><time>2026-03-21T01:29:07.000Z</time></trkpt>
        <trkpt lat="28.824326" lon="105.531277"><ele>506.33566</ele><time>2026-03-21T01:29:14.000Z</time></trkpt>
        <trkpt lat="28.824315" lon="105.531229"><ele>507.165</ele><time>2026-03-21T01:29:21.000Z</time></trkpt>
        <trkpt lat="28.824297" lon="105.531183"><ele>507.62292</ele><time>2026-03-21T01:29:26.000Z</time></trkpt>
        <trkpt lat="28.824268" lon="105.531139"><ele>508.9863</ele><time>2026-03-21T01:29:32.000Z</time></trkpt>
        <trkpt lat="28.824248" lon="105.531094"><ele>509.8716</ele><time>2026-03-21T01:29:37.000Z</time></trkpt>
        <trkpt lat="28.82424" lon="105.531034"><ele>509.962</ele><time>2026-03-21T01:29:45.000Z</time></trkpt>
        <trkpt lat="28.824206" lon="105.531003"><ele>511.1018</ele><time>2026-03-21T01:29:52.000Z</time></trkpt>
        <trkpt lat="28.824192" lon="105.530964"><ele>511.9641</ele><time>2026-03-21T01:29:55.000Z</time></trkpt>
        <trkpt lat="28.824157" lon="105.530924"><ele>512.8153</ele><time>2026-03-21T01:29:59.000Z</time></trkpt>
        <trkpt lat="28.824103" lon="105.530876"><ele>511.85443</ele><time>2026-03-21T01:30:08.000Z</time></trkpt>
        <trkpt lat="28.824089" lon="105.530833"><ele>511.81784</ele><time>2026-03-21T01:30:14.000Z</time></trkpt>
        <trkpt lat="28.824071" lon="105.530794"><ele>512.1375</ele><time>2026-03-21T01:30:17.000Z</time></trkpt>
        <trkpt lat="28.824047" lon="105.53074"><ele>512.3393</ele><time>2026-03-21T01:30:22.000Z</time></trkpt>
        <trkpt lat="28.824021" lon="105.530699"><ele>512.9507</ele><time>2026-03-21T01:30:25.000Z</time></trkpt>
        <trkpt lat="28.823989" lon="105.530649"><ele>512.8369</ele><time>2026-03-21T01:30:28.000Z</time></trkpt>
        <trkpt lat="28.823954" lon="105.530597"><ele>513.22455</ele><time>2026-03-21T01:30:37.000Z</time></trkpt>
        <trkpt lat="28.823945" lon="105.530556"><ele>513.1167</ele><time>2026-03-21T01:30:39.000Z</time></trkpt>
        <trkpt lat="28.823928" lon="105.53048"><ele>511.72345</ele><time>2026-03-21T01:30:46.000Z</time></trkpt>
        <trkpt lat="28.823927" lon="105.530409"><ele>510.98746</ele><time>2026-03-21T01:30:55.000Z</time></trkpt>
        <trkpt lat="28.823951" lon="105.530373"><ele>509.96262</ele><time>2026-03-21T01:30:59.000Z</time></trkpt>
        <trkpt lat="28.82399" lon="105.530372"><ele>507.47098</ele><time>2026-03-21T01:31:03.000Z</time></trkpt>
        <trkpt lat="28.824045" lon="105.530389"><ele>504.90442</ele><time>2026-03-21T01:31:08.000Z</time></trkpt>
        <trkpt lat="28.824115" lon="105.530402"><ele>502.48495</ele><time>2026-03-21T01:31:24.000Z</time></trkpt>
        <trkpt lat="28.824158" lon="105.530416"><ele>499.95602</ele><time>2026-03-21T01:31:33.000Z</time></trkpt>
        <trkpt lat="28.824213" lon="105.53044"><ele>498.73514</ele><time>2026-03-21T01:31:41.000Z</time></trkpt>
        <trkpt lat="28.824264" lon="105.530446"><ele>497.37985</ele><time>2026-03-21T01:31:49.000Z</time></trkpt>
        <trkpt lat="28.8243" lon="105.530418"><ele>497.4961</ele><time>2026-03-21T01:31:55.000Z</time></trkpt>
        <trkpt lat="28.824337" lon="105.530411"><ele>496.44855</ele><time>2026-03-21T01:31:58.000Z</time></trkpt>
        <trkpt lat="28.824389" lon="105.530427"><ele>495.6782</ele><time>2026-03-21T01:32:03.000Z</time></trkpt>
        <trkpt lat="28.824445" lon="105.530437"><ele>494.96387</ele><time>2026-03-21T01:32:08.000Z</time></trkpt>
        <trkpt lat="28.824485" lon="105.530451"><ele>494.60202</ele><time>2026-03-21T01:32:11.000Z</time></trkpt>
        <trkpt lat="28.82451" lon="105.530502"><ele>493.60635</ele><time>2026-03-21T01:32:15.000Z</time></trkpt>
        <trkpt lat="28.824531" lon="105.530569"><ele>493.72653</ele><time>2026-03-21T01:32:20.000Z</time></trkpt>
        <trkpt lat="28.824541" lon="105.530634"><ele>493.80112</ele><time>2026-03-21T01:32:25.000Z</time></trkpt>
        <trkpt lat="28.824563" lon="105.530686"><ele>493.73328</ele><time>2026-03-21T01:32:32.000Z</time></trkpt>
        <trkpt lat="28.824584" lon="105.530731"><ele>494.68378</ele><time>2026-03-21T01:32:56.000Z</time></trkpt>
        <trkpt lat="28.824545" lon="105.53071"><ele>493.9841</ele><time>2026-03-21T01:33:08.000Z</time></trkpt>
      </trkseg>
  </trk>
</gpx>